<?xml version="1.0" encoding="UTF-8" standalone="no" ?>
<gpx xmlns="http://www.topografix.com/GPX/1/1" xmlns:xsi="http://www.w3.org/2001/XMLSchema-instance" xsi:schemaLocation="http://www.topografix.com/GPX/1/1 http://www.topografix.com/GPX/1/1/gpx.xsd" version="1.1" creator="VisuGPX - https://www.visugpx.com">
  <metadata>
    <name>MARCHE 6230m 2023</name>
  </metadata>
  <trk>
    <name><![CDATA[Sinzos Trail]]></name>
    <extensions>
      <line xmlns="http://www.topografix.com/GPX/gpx_style/0/2">
        <color>0000FF</color>
        <width>4</width>
      </line>
    </extensions>
    <trkseg>
      <trkpt lat="43.21673" lon="0.21785">
        <ele>277.20001220703</ele>
        <time>2023-04-13T15:25:19.000Z</time>
      </trkpt>
      <trkpt lat="43.21668" lon="0.21787">
        <ele>277.39999389648</ele>
        <time>2023-04-13T15:25:26.000Z</time>
      </trkpt>
      <trkpt lat="43.21666" lon="0.21786">
        <ele>277.39999389648</ele>
        <time>2023-04-13T15:25:28.000Z</time>
      </trkpt>
      <trkpt lat="43.21661" lon="0.21784">
        <ele>277.60000610352</ele>
        <time>2023-04-13T15:25:31.000Z</time>
      </trkpt>
      <trkpt lat="43.21657" lon="0.21782">
        <ele>277.60000610352</ele>
        <time>2023-04-13T15:25:33.000Z</time>
      </trkpt>
      <trkpt lat="43.21652" lon="0.21784">
        <ele>277.79998779297</ele>
        <time>2023-04-13T15:25:35.000Z</time>
      </trkpt>
      <trkpt lat="43.21645" lon="0.21785">
        <ele>278.39999389648</ele>
        <time>2023-04-13T15:25:38.000Z</time>
      </trkpt>
      <trkpt lat="43.21642" lon="0.21785">
        <ele>278.60000610352</ele>
        <time>2023-04-13T15:25:39.000Z</time>
      </trkpt>
      <trkpt lat="43.21639" lon="0.21787">
        <ele>278.79998779297</ele>
        <time>2023-04-13T15:25:40.000Z</time>
      </trkpt>
      <trkpt lat="43.2163" lon="0.21794">
        <ele>279.20001220703</ele>
        <time>2023-04-13T15:25:43.000Z</time>
      </trkpt>
      <trkpt lat="43.21624" lon="0.21799">
        <ele>279.39999389648</ele>
        <time>2023-04-13T15:25:45.000Z</time>
      </trkpt>
      <trkpt lat="43.21619" lon="0.21802">
        <ele>279.39999389648</ele>
        <time>2023-04-13T15:25:47.000Z</time>
      </trkpt>
      <trkpt lat="43.21614" lon="0.21806">
        <ele>279.39999389648</ele>
        <time>2023-04-13T15:25:49.000Z</time>
      </trkpt>
      <trkpt lat="43.21608" lon="0.21808">
        <ele>280.20001220703</ele>
        <time>2023-04-13T15:25:51.000Z</time>
      </trkpt>
      <trkpt lat="43.21605" lon="0.2181">
        <ele>280.39999389648</ele>
        <time>2023-04-13T15:25:52.000Z</time>
      </trkpt>
      <trkpt lat="43.21602" lon="0.21812">
        <ele>280.60000610352</ele>
        <time>2023-04-13T15:25:53.000Z</time>
      </trkpt>
      <trkpt lat="43.21597" lon="0.21815">
        <ele>280.79998779297</ele>
        <time>2023-04-13T15:25:55.000Z</time>
      </trkpt>
      <trkpt lat="43.21588" lon="0.21817">
        <ele>281.20001220703</ele>
        <time>2023-04-13T15:25:58.000Z</time>
      </trkpt>
      <trkpt lat="43.21583" lon="0.21819">
        <ele>281.60000610352</ele>
        <time>2023-04-13T15:26:00.000Z</time>
      </trkpt>
      <trkpt lat="43.21573" lon="0.2182">
        <ele>282.20001220703</ele>
        <time>2023-04-13T15:26:03.000Z</time>
      </trkpt>
      <trkpt lat="43.21565" lon="0.21823">
        <ele>282.20001220703</ele>
        <time>2023-04-13T15:26:06.000Z</time>
      </trkpt>
      <trkpt lat="43.21556" lon="0.21826">
        <ele>282.20001220703</ele>
        <time>2023-04-13T15:26:09.000Z</time>
      </trkpt>
      <trkpt lat="43.2155" lon="0.21828">
        <ele>282.20001220703</ele>
        <time>2023-04-13T15:26:11.000Z</time>
      </trkpt>
      <trkpt lat="43.21544" lon="0.2183">
        <ele>282.20001220703</ele>
        <time>2023-04-13T15:26:13.000Z</time>
      </trkpt>
      <trkpt lat="43.21535" lon="0.21835">
        <ele>282.60000610352</ele>
        <time>2023-04-13T15:26:16.000Z</time>
      </trkpt>
      <trkpt lat="43.21532" lon="0.21836">
        <ele>282.79998779297</ele>
        <time>2023-04-13T15:26:17.000Z</time>
      </trkpt>
      <trkpt lat="43.21517" lon="0.21841">
        <ele>282.79998779297</ele>
        <time>2023-04-13T15:26:22.000Z</time>
      </trkpt>
      <trkpt lat="43.21514" lon="0.21843">
        <ele>282.79998779297</ele>
        <time>2023-04-13T15:26:23.000Z</time>
      </trkpt>
      <trkpt lat="43.21511" lon="0.21845">
        <ele>283</ele>
        <time>2023-04-13T15:26:24.000Z</time>
      </trkpt>
      <trkpt lat="43.21501" lon="0.2185">
        <ele>283.60000610352</ele>
        <time>2023-04-13T15:26:27.000Z</time>
      </trkpt>
      <trkpt lat="43.2149" lon="0.21856">
        <ele>283.39999389648</ele>
        <time>2023-04-13T15:26:31.000Z</time>
      </trkpt>
      <trkpt lat="43.21478" lon="0.2186">
        <ele>283.39999389648</ele>
        <time>2023-04-13T15:26:35.000Z</time>
      </trkpt>
      <trkpt lat="43.21469" lon="0.21864">
        <ele>283.60000610352</ele>
        <time>2023-04-13T15:26:38.000Z</time>
      </trkpt>
      <trkpt lat="43.21465" lon="0.21866">
        <ele>283.79998779297</ele>
        <time>2023-04-13T15:26:39.000Z</time>
      </trkpt>
      <trkpt lat="43.2146" lon="0.21868">
        <ele>284</ele>
        <time>2023-04-13T15:26:41.000Z</time>
      </trkpt>
      <trkpt lat="43.21457" lon="0.2187">
        <ele>284</ele>
        <time>2023-04-13T15:26:42.000Z</time>
      </trkpt>
      <trkpt lat="43.21448" lon="0.21873">
        <ele>283.79998779297</ele>
        <time>2023-04-13T15:26:45.000Z</time>
      </trkpt>
      <trkpt lat="43.21445" lon="0.21874">
        <ele>283.60000610352</ele>
        <time>2023-04-13T15:26:46.000Z</time>
      </trkpt>
      <trkpt lat="43.21433" lon="0.21876">
        <ele>283</ele>
        <time>2023-04-13T15:26:50.000Z</time>
      </trkpt>
      <trkpt lat="43.21426" lon="0.21878">
        <ele>282.60000610352</ele>
        <time>2023-04-13T15:26:52.000Z</time>
      </trkpt>
      <trkpt lat="43.21421" lon="0.21878">
        <ele>282.39999389648</ele>
        <time>2023-04-13T15:26:53.000Z</time>
      </trkpt>
      <trkpt lat="43.21405" lon="0.21878">
        <ele>281.20001220703</ele>
        <time>2023-04-13T15:26:58.000Z</time>
      </trkpt>
      <trkpt lat="43.21395" lon="0.21875">
        <ele>280.39999389648</ele>
        <time>2023-04-13T15:27:01.000Z</time>
      </trkpt>
      <trkpt lat="43.21388" lon="0.21875">
        <ele>280.20001220703</ele>
        <time>2023-04-13T15:27:03.000Z</time>
      </trkpt>
      <trkpt lat="43.21378" lon="0.21863">
        <ele>279.39999389648</ele>
        <time>2023-04-13T15:27:07.000Z</time>
      </trkpt>
      <trkpt lat="43.21376" lon="0.2185">
        <ele>279.20001220703</ele>
        <time>2023-04-13T15:27:09.000Z</time>
      </trkpt>
      <trkpt lat="43.21376" lon="0.21838">
        <ele>279</ele>
        <time>2023-04-13T15:27:11.000Z</time>
      </trkpt>
      <trkpt lat="43.2138" lon="0.21811">
        <ele>278.79998779297</ele>
        <time>2023-04-13T15:27:17.000Z</time>
      </trkpt>
      <trkpt lat="43.21381" lon="0.21806">
        <ele>278.79998779297</ele>
        <time>2023-04-13T15:27:18.000Z</time>
      </trkpt>
      <trkpt lat="43.21384" lon="0.21778">
        <ele>279</ele>
        <time>2023-04-13T15:27:25.000Z</time>
      </trkpt>
      <trkpt lat="43.21384" lon="0.21774">
        <ele>279.20001220703</ele>
        <time>2023-04-13T15:27:26.000Z</time>
      </trkpt>
      <trkpt lat="43.21384" lon="0.21769">
        <ele>279.20001220703</ele>
        <time>2023-04-13T15:27:27.000Z</time>
      </trkpt>
      <trkpt lat="43.21386" lon="0.21743">
        <ele>279.60000610352</ele>
        <time>2023-04-13T15:27:34.000Z</time>
      </trkpt>
      <trkpt lat="43.21387" lon="0.21736">
        <ele>279.79998779297</ele>
        <time>2023-04-13T15:27:36.000Z</time>
      </trkpt>
      <trkpt lat="43.21386" lon="0.21725">
        <ele>280</ele>
        <time>2023-04-13T15:27:39.000Z</time>
      </trkpt>
      <trkpt lat="43.21387" lon="0.21713">
        <ele>280.20001220703</ele>
        <time>2023-04-13T15:27:42.000Z</time>
      </trkpt>
      <trkpt lat="43.21387" lon="0.21688">
        <ele>280.60000610352</ele>
        <time>2023-04-13T15:27:49.000Z</time>
      </trkpt>
      <trkpt lat="43.21387" lon="0.21674">
        <ele>281.20001220703</ele>
        <time>2023-04-13T15:27:54.000Z</time>
      </trkpt>
      <trkpt lat="43.21387" lon="0.21668">
        <ele>281.20001220703</ele>
        <time>2023-04-13T15:27:56.000Z</time>
      </trkpt>
      <trkpt lat="43.21386" lon="0.21656">
        <ele>281.79998779297</ele>
        <time>2023-04-13T15:28:01.000Z</time>
      </trkpt>
      <trkpt lat="43.21382" lon="0.2165">
        <ele>282.39999389648</ele>
        <time>2023-04-13T15:28:05.000Z</time>
      </trkpt>
      <trkpt lat="43.21379" lon="0.21648">
        <ele>283</ele>
        <time>2023-04-13T15:28:07.000Z</time>
      </trkpt>
      <trkpt lat="43.21376" lon="0.21642">
        <ele>283.60000610352</ele>
        <time>2023-04-13T15:28:10.000Z</time>
      </trkpt>
      <trkpt lat="43.21376" lon="0.21639">
        <ele>283.60000610352</ele>
        <time>2023-04-13T15:28:11.000Z</time>
      </trkpt>
      <trkpt lat="43.21376" lon="0.21634">
        <ele>284.39999389648</ele>
        <time>2023-04-13T15:28:13.000Z</time>
      </trkpt>
      <trkpt lat="43.21376" lon="0.21631">
        <ele>284.79998779297</ele>
        <time>2023-04-13T15:28:14.000Z</time>
      </trkpt>
      <trkpt lat="43.21376" lon="0.21629">
        <ele>285.20001220703</ele>
        <time>2023-04-13T15:28:15.000Z</time>
      </trkpt>
      <trkpt lat="43.21376" lon="0.2162">
        <ele>286</ele>
        <time>2023-04-13T15:28:18.000Z</time>
      </trkpt>
      <trkpt lat="43.21376" lon="0.21615">
        <ele>286.79998779297</ele>
        <time>2023-04-13T15:28:20.000Z</time>
      </trkpt>
      <trkpt lat="43.21377" lon="0.21613">
        <ele>287</ele>
        <time>2023-04-13T15:28:21.000Z</time>
      </trkpt>
      <trkpt lat="43.21377" lon="0.21608">
        <ele>287.60000610352</ele>
        <time>2023-04-13T15:28:23.000Z</time>
      </trkpt>
      <trkpt lat="43.21378" lon="0.21606">
        <ele>288</ele>
        <time>2023-04-13T15:28:24.000Z</time>
      </trkpt>
      <trkpt lat="43.21378" lon="0.21603">
        <ele>288.20001220703</ele>
        <time>2023-04-13T15:28:25.000Z</time>
      </trkpt>
      <trkpt lat="43.21378" lon="0.21592">
        <ele>289.20001220703</ele>
        <time>2023-04-13T15:28:29.000Z</time>
      </trkpt>
      <trkpt lat="43.21378" lon="0.21588">
        <ele>289.79998779297</ele>
        <time>2023-04-13T15:28:31.000Z</time>
      </trkpt>
      <trkpt lat="43.2138" lon="0.21582">
        <ele>290.20001220703</ele>
        <time>2023-04-13T15:28:33.000Z</time>
      </trkpt>
      <trkpt lat="43.2138" lon="0.21575">
        <ele>291.39999389648</ele>
        <time>2023-04-13T15:28:36.000Z</time>
      </trkpt>
      <trkpt lat="43.2138" lon="0.2157">
        <ele>291.60000610352</ele>
        <time>2023-04-13T15:28:38.000Z</time>
      </trkpt>
      <trkpt lat="43.2138" lon="0.21567">
        <ele>291.79998779297</ele>
        <time>2023-04-13T15:28:39.000Z</time>
      </trkpt>
      <trkpt lat="43.2138" lon="0.21564">
        <ele>292.20001220703</ele>
        <time>2023-04-13T15:28:40.000Z</time>
      </trkpt>
      <trkpt lat="43.2138" lon="0.21562">
        <ele>292.39999389648</ele>
        <time>2023-04-13T15:28:41.000Z</time>
      </trkpt>
      <trkpt lat="43.21381" lon="0.21558">
        <ele>292.60000610352</ele>
        <time>2023-04-13T15:28:43.000Z</time>
      </trkpt>
      <trkpt lat="43.21382" lon="0.21551">
        <ele>293.60000610352</ele>
        <time>2023-04-13T15:28:46.000Z</time>
      </trkpt>
      <trkpt lat="43.21384" lon="0.21542">
        <ele>294.39999389648</ele>
        <time>2023-04-13T15:28:50.000Z</time>
      </trkpt>
      <trkpt lat="43.21384" lon="0.21539">
        <ele>294.60000610352</ele>
        <time>2023-04-13T15:28:51.000Z</time>
      </trkpt>
      <trkpt lat="43.21383" lon="0.21536">
        <ele>294.79998779297</ele>
        <time>2023-04-13T15:28:52.000Z</time>
      </trkpt>
      <trkpt lat="43.21385" lon="0.21524">
        <ele>296.20001220703</ele>
        <time>2023-04-13T15:28:57.000Z</time>
      </trkpt>
      <trkpt lat="43.21386" lon="0.21522">
        <ele>296.60000610352</ele>
        <time>2023-04-13T15:28:58.000Z</time>
      </trkpt>
      <trkpt lat="43.21387" lon="0.21515">
        <ele>297.20001220703</ele>
        <time>2023-04-13T15:29:01.000Z</time>
      </trkpt>
      <trkpt lat="43.21388" lon="0.21505">
        <ele>298.39999389648</ele>
        <time>2023-04-13T15:29:05.000Z</time>
      </trkpt>
      <trkpt lat="43.21388" lon="0.21497">
        <ele>299.60000610352</ele>
        <time>2023-04-13T15:29:08.000Z</time>
      </trkpt>
      <trkpt lat="43.21389" lon="0.21485">
        <ele>300.79998779297</ele>
        <time>2023-04-13T15:29:13.000Z</time>
      </trkpt>
      <trkpt lat="43.2139" lon="0.21481">
        <ele>301.39999389648</ele>
        <time>2023-04-13T15:29:15.000Z</time>
      </trkpt>
      <trkpt lat="43.21391" lon="0.21476">
        <ele>301.79998779297</ele>
        <time>2023-04-13T15:29:17.000Z</time>
      </trkpt>
      <trkpt lat="43.21391" lon="0.21474">
        <ele>302.20001220703</ele>
        <time>2023-04-13T15:29:18.000Z</time>
      </trkpt>
      <trkpt lat="43.21392" lon="0.21471">
        <ele>302.60000610352</ele>
        <time>2023-04-13T15:29:19.000Z</time>
      </trkpt>
      <trkpt lat="43.21392" lon="0.21469">
        <ele>303</ele>
        <time>2023-04-13T15:29:20.000Z</time>
      </trkpt>
      <trkpt lat="43.21393" lon="0.21462">
        <ele>303.60000610352</ele>
        <time>2023-04-13T15:29:23.000Z</time>
      </trkpt>
      <trkpt lat="43.21395" lon="0.21457">
        <ele>304</ele>
        <time>2023-04-13T15:29:25.000Z</time>
      </trkpt>
      <trkpt lat="43.21396" lon="0.21447">
        <ele>305.20001220703</ele>
        <time>2023-04-13T15:29:29.000Z</time>
      </trkpt>
      <trkpt lat="43.21396" lon="0.21445">
        <ele>305.39999389648</ele>
        <time>2023-04-13T15:29:30.000Z</time>
      </trkpt>
      <trkpt lat="43.21398" lon="0.21434">
        <ele>306.39999389648</ele>
        <time>2023-04-13T15:29:34.000Z</time>
      </trkpt>
      <trkpt lat="43.214" lon="0.21427">
        <ele>307.39999389648</ele>
        <time>2023-04-13T15:29:37.000Z</time>
      </trkpt>
      <trkpt lat="43.214" lon="0.21425">
        <ele>307.60000610352</ele>
        <time>2023-04-13T15:29:38.000Z</time>
      </trkpt>
      <trkpt lat="43.214" lon="0.21419">
        <ele>308</ele>
        <time>2023-04-13T15:29:40.000Z</time>
      </trkpt>
      <trkpt lat="43.21401" lon="0.21413">
        <ele>308.79998779297</ele>
        <time>2023-04-13T15:29:42.000Z</time>
      </trkpt>
      <trkpt lat="43.21402" lon="0.2141">
        <ele>309</ele>
        <time>2023-04-13T15:29:43.000Z</time>
      </trkpt>
      <trkpt lat="43.21405" lon="0.21398">
        <ele>309.60000610352</ele>
        <time>2023-04-13T15:29:47.000Z</time>
      </trkpt>
      <trkpt lat="43.21406" lon="0.21392">
        <ele>309.79998779297</ele>
        <time>2023-04-13T15:29:49.000Z</time>
      </trkpt>
      <trkpt lat="43.21407" lon="0.2139">
        <ele>310</ele>
        <time>2023-04-13T15:29:50.000Z</time>
      </trkpt>
      <trkpt lat="43.21413" lon="0.21372">
        <ele>310.79998779297</ele>
        <time>2023-04-13T15:29:57.000Z</time>
      </trkpt>
      <trkpt lat="43.21414" lon="0.21369">
        <ele>311</ele>
        <time>2023-04-13T15:29:58.000Z</time>
      </trkpt>
      <trkpt lat="43.21417" lon="0.21355">
        <ele>312.20001220703</ele>
        <time>2023-04-13T15:30:03.000Z</time>
      </trkpt>
      <trkpt lat="43.21418" lon="0.2135">
        <ele>312.39999389648</ele>
        <time>2023-04-13T15:30:05.000Z</time>
      </trkpt>
      <trkpt lat="43.21422" lon="0.21334">
        <ele>313.39999389648</ele>
        <time>2023-04-13T15:30:11.000Z</time>
      </trkpt>
      <trkpt lat="43.21424" lon="0.21324">
        <ele>314</ele>
        <time>2023-04-13T15:30:15.000Z</time>
      </trkpt>
      <trkpt lat="43.21426" lon="0.21317">
        <ele>314.60000610352</ele>
        <time>2023-04-13T15:30:18.000Z</time>
      </trkpt>
      <trkpt lat="43.21427" lon="0.21308">
        <ele>315</ele>
        <time>2023-04-13T15:30:21.000Z</time>
      </trkpt>
      <trkpt lat="43.21427" lon="0.213">
        <ele>315.79998779297</ele>
        <time>2023-04-13T15:30:24.000Z</time>
      </trkpt>
      <trkpt lat="43.21428" lon="0.21289">
        <ele>316.39999389648</ele>
        <time>2023-04-13T15:30:28.000Z</time>
      </trkpt>
      <trkpt lat="43.21428" lon="0.21283">
        <ele>316.79998779297</ele>
        <time>2023-04-13T15:30:30.000Z</time>
      </trkpt>
      <trkpt lat="43.21429" lon="0.21278">
        <ele>317</ele>
        <time>2023-04-13T15:30:32.000Z</time>
      </trkpt>
      <trkpt lat="43.2143" lon="0.21266">
        <ele>318.20001220703</ele>
        <time>2023-04-13T15:30:37.000Z</time>
      </trkpt>
      <trkpt lat="43.21432" lon="0.21261">
        <ele>318.79998779297</ele>
        <time>2023-04-13T15:30:40.000Z</time>
      </trkpt>
      <trkpt lat="43.21433" lon="0.21254">
        <ele>319.39999389648</ele>
        <time>2023-04-13T15:30:43.000Z</time>
      </trkpt>
      <trkpt lat="43.21434" lon="0.21242">
        <ele>320.39999389648</ele>
        <time>2023-04-13T15:30:47.000Z</time>
      </trkpt>
      <trkpt lat="43.21434" lon="0.21239">
        <ele>320.39999389648</ele>
        <time>2023-04-13T15:30:48.000Z</time>
      </trkpt>
      <trkpt lat="43.21435" lon="0.2123">
        <ele>321.60000610352</ele>
        <time>2023-04-13T15:30:52.000Z</time>
      </trkpt>
      <trkpt lat="43.21435" lon="0.21226">
        <ele>322</ele>
        <time>2023-04-13T15:30:54.000Z</time>
      </trkpt>
      <trkpt lat="43.21435" lon="0.21224">
        <ele>322.20001220703</ele>
        <time>2023-04-13T15:30:55.000Z</time>
      </trkpt>
      <trkpt lat="43.21435" lon="0.2122">
        <ele>322.79998779297</ele>
        <time>2023-04-13T15:30:57.000Z</time>
      </trkpt>
      <trkpt lat="43.21435" lon="0.21218">
        <ele>323</ele>
        <time>2023-04-13T15:30:58.000Z</time>
      </trkpt>
      <trkpt lat="43.21435" lon="0.21212">
        <ele>323.79998779297</ele>
        <time>2023-04-13T15:31:01.000Z</time>
      </trkpt>
      <trkpt lat="43.21434" lon="0.21208">
        <ele>324</ele>
        <time>2023-04-13T15:31:02.000Z</time>
      </trkpt>
      <trkpt lat="43.21433" lon="0.21199">
        <ele>325</ele>
        <time>2023-04-13T15:31:06.000Z</time>
      </trkpt>
      <trkpt lat="43.21432" lon="0.21193">
        <ele>326</ele>
        <time>2023-04-13T15:31:10.000Z</time>
      </trkpt>
      <trkpt lat="43.21432" lon="0.21191">
        <ele>326.20001220703</ele>
        <time>2023-04-13T15:31:11.000Z</time>
      </trkpt>
      <trkpt lat="43.21434" lon="0.21182">
        <ele>327.20001220703</ele>
        <time>2023-04-13T15:31:14.000Z</time>
      </trkpt>
      <trkpt lat="43.21434" lon="0.21173">
        <ele>328</ele>
        <time>2023-04-13T15:31:18.000Z</time>
      </trkpt>
      <trkpt lat="43.21434" lon="0.21168">
        <ele>328.60000610352</ele>
        <time>2023-04-13T15:31:20.000Z</time>
      </trkpt>
      <trkpt lat="43.21435" lon="0.21157">
        <ele>329.79998779297</ele>
        <time>2023-04-13T15:31:24.000Z</time>
      </trkpt>
      <trkpt lat="43.21435" lon="0.21146">
        <ele>330.60000610352</ele>
        <time>2023-04-13T15:31:27.000Z</time>
      </trkpt>
      <trkpt lat="43.21435" lon="0.21142">
        <ele>330.79998779297</ele>
        <time>2023-04-13T15:31:28.000Z</time>
      </trkpt>
      <trkpt lat="43.21436" lon="0.21135">
        <ele>332</ele>
        <time>2023-04-13T15:31:31.000Z</time>
      </trkpt>
      <trkpt lat="43.21436" lon="0.21127">
        <ele>332.60000610352</ele>
        <time>2023-04-13T15:31:34.000Z</time>
      </trkpt>
      <trkpt lat="43.21435" lon="0.21125">
        <ele>333</ele>
        <time>2023-04-13T15:31:35.000Z</time>
      </trkpt>
      <trkpt lat="43.21434" lon="0.21112">
        <ele>334.20001220703</ele>
        <time>2023-04-13T15:31:40.000Z</time>
      </trkpt>
      <trkpt lat="43.21431" lon="0.21097">
        <ele>335</ele>
        <time>2023-04-13T15:31:44.000Z</time>
      </trkpt>
      <trkpt lat="43.2143" lon="0.21095">
        <ele>335.20001220703</ele>
        <time>2023-04-13T15:31:45.000Z</time>
      </trkpt>
      <trkpt lat="43.21426" lon="0.21089">
        <ele>336.20001220703</ele>
        <time>2023-04-13T15:31:49.000Z</time>
      </trkpt>
      <trkpt lat="43.21425" lon="0.21087">
        <ele>336.39999389648</ele>
        <time>2023-04-13T15:31:50.000Z</time>
      </trkpt>
      <trkpt lat="43.21418" lon="0.21079">
        <ele>337.60000610352</ele>
        <time>2023-04-13T15:31:54.000Z</time>
      </trkpt>
      <trkpt lat="43.21416" lon="0.21076">
        <ele>337.79998779297</ele>
        <time>2023-04-13T15:31:55.000Z</time>
      </trkpt>
      <trkpt lat="43.21412" lon="0.2107">
        <ele>338.60000610352</ele>
        <time>2023-04-13T15:31:58.000Z</time>
      </trkpt>
      <trkpt lat="43.2141" lon="0.21061">
        <ele>339.60000610352</ele>
        <time>2023-04-13T15:32:01.000Z</time>
      </trkpt>
      <trkpt lat="43.2141" lon="0.21059">
        <ele>340</ele>
        <time>2023-04-13T15:32:02.000Z</time>
      </trkpt>
      <trkpt lat="43.2141" lon="0.21046">
        <ele>341.20001220703</ele>
        <time>2023-04-13T15:32:07.000Z</time>
      </trkpt>
      <trkpt lat="43.21411" lon="0.21043">
        <ele>341.20001220703</ele>
        <time>2023-04-13T15:32:08.000Z</time>
      </trkpt>
      <trkpt lat="43.21413" lon="0.21031">
        <ele>342.39999389648</ele>
        <time>2023-04-13T15:32:12.000Z</time>
      </trkpt>
      <trkpt lat="43.21413" lon="0.21026">
        <ele>343.20001220703</ele>
        <time>2023-04-13T15:32:14.000Z</time>
      </trkpt>
      <trkpt lat="43.21414" lon="0.21023">
        <ele>343.60000610352</ele>
        <time>2023-04-13T15:32:15.000Z</time>
      </trkpt>
      <trkpt lat="43.21414" lon="0.21019">
        <ele>343.60000610352</ele>
        <time>2023-04-13T15:32:16.000Z</time>
      </trkpt>
      <trkpt lat="43.21414" lon="0.21016">
        <ele>344</ele>
        <time>2023-04-13T15:32:17.000Z</time>
      </trkpt>
      <trkpt lat="43.21416" lon="0.21003">
        <ele>344.79998779297</ele>
        <time>2023-04-13T15:32:21.000Z</time>
      </trkpt>
      <trkpt lat="43.21416" lon="0.20987">
        <ele>346</ele>
        <time>2023-04-13T15:32:25.000Z</time>
      </trkpt>
      <trkpt lat="43.21417" lon="0.20979">
        <ele>346.20001220703</ele>
        <time>2023-04-13T15:32:27.000Z</time>
      </trkpt>
      <trkpt lat="43.21418" lon="0.20961">
        <ele>347</ele>
        <time>2023-04-13T15:32:32.000Z</time>
      </trkpt>
      <trkpt lat="43.21419" lon="0.20949">
        <ele>347.39999389648</ele>
        <time>2023-04-13T15:32:35.000Z</time>
      </trkpt>
      <trkpt lat="43.21422" lon="0.20924">
        <ele>348</ele>
        <time>2023-04-13T15:32:42.000Z</time>
      </trkpt>
      <trkpt lat="43.21422" lon="0.20913">
        <ele>348.39999389648</ele>
        <time>2023-04-13T15:32:45.000Z</time>
      </trkpt>
      <trkpt lat="43.21424" lon="0.20899">
        <ele>349</ele>
        <time>2023-04-13T15:32:49.000Z</time>
      </trkpt>
      <trkpt lat="43.21425" lon="0.20895">
        <ele>349.20001220703</ele>
        <time>2023-04-13T15:32:50.000Z</time>
      </trkpt>
      <trkpt lat="43.21426" lon="0.20885">
        <ele>349.79998779297</ele>
        <time>2023-04-13T15:32:53.000Z</time>
      </trkpt>
      <trkpt lat="43.21426" lon="0.20881">
        <ele>350.20001220703</ele>
        <time>2023-04-13T15:32:54.000Z</time>
      </trkpt>
      <trkpt lat="43.2143" lon="0.20855">
        <ele>351.20001220703</ele>
        <time>2023-04-13T15:33:01.000Z</time>
      </trkpt>
      <trkpt lat="43.21431" lon="0.20848">
        <ele>352</ele>
        <time>2023-04-13T15:33:03.000Z</time>
      </trkpt>
      <trkpt lat="43.21432" lon="0.2084">
        <ele>352.39999389648</ele>
        <time>2023-04-13T15:33:05.000Z</time>
      </trkpt>
      <trkpt lat="43.21434" lon="0.20822">
        <ele>352.79998779297</ele>
        <time>2023-04-13T15:33:10.000Z</time>
      </trkpt>
      <trkpt lat="43.21436" lon="0.20812">
        <ele>353.20001220703</ele>
        <time>2023-04-13T15:33:13.000Z</time>
      </trkpt>
      <trkpt lat="43.21437" lon="0.20808">
        <ele>353.39999389648</ele>
        <time>2023-04-13T15:33:14.000Z</time>
      </trkpt>
      <trkpt lat="43.2144" lon="0.20789">
        <ele>354.60000610352</ele>
        <time>2023-04-13T15:33:19.000Z</time>
      </trkpt>
      <trkpt lat="43.21441" lon="0.20782">
        <ele>354.60000610352</ele>
        <time>2023-04-13T15:33:21.000Z</time>
      </trkpt>
      <trkpt lat="43.21443" lon="0.20763">
        <ele>354.79998779297</ele>
        <time>2023-04-13T15:33:26.000Z</time>
      </trkpt>
      <trkpt lat="43.21446" lon="0.20737">
        <ele>355.60000610352</ele>
        <time>2023-04-13T15:33:33.000Z</time>
      </trkpt>
      <trkpt lat="43.21447" lon="0.20733">
        <ele>355.79998779297</ele>
        <time>2023-04-13T15:33:34.000Z</time>
      </trkpt>
      <trkpt lat="43.21448" lon="0.20722">
        <ele>355.79998779297</ele>
        <time>2023-04-13T15:33:37.000Z</time>
      </trkpt>
      <trkpt lat="43.2145" lon="0.20702">
        <ele>356.20001220703</ele>
        <time>2023-04-13T15:33:42.000Z</time>
      </trkpt>
      <trkpt lat="43.21454" lon="0.20678">
        <ele>356.60000610352</ele>
        <time>2023-04-13T15:33:49.000Z</time>
      </trkpt>
      <trkpt lat="43.21456" lon="0.20671">
        <ele>357</ele>
        <time>2023-04-13T15:33:51.000Z</time>
      </trkpt>
      <trkpt lat="43.21461" lon="0.20643">
        <ele>357.39999389648</ele>
        <time>2023-04-13T15:33:59.000Z</time>
      </trkpt>
      <trkpt lat="43.21462" lon="0.20636">
        <ele>357.60000610352</ele>
        <time>2023-04-13T15:34:01.000Z</time>
      </trkpt>
      <trkpt lat="43.21465" lon="0.20627">
        <ele>358</ele>
        <time>2023-04-13T15:34:04.000Z</time>
      </trkpt>
      <trkpt lat="43.2147" lon="0.20604">
        <ele>358.60000610352</ele>
        <time>2023-04-13T15:34:10.000Z</time>
      </trkpt>
      <trkpt lat="43.21473" lon="0.2059">
        <ele>359.20001220703</ele>
        <time>2023-04-13T15:34:14.000Z</time>
      </trkpt>
      <trkpt lat="43.21473" lon="0.2058">
        <ele>359.39999389648</ele>
        <time>2023-04-13T15:34:16.000Z</time>
      </trkpt>
      <trkpt lat="43.21474" lon="0.20576">
        <ele>359.39999389648</ele>
        <time>2023-04-13T15:34:17.000Z</time>
      </trkpt>
      <trkpt lat="43.21477" lon="0.20561">
        <ele>360.20001220703</ele>
        <time>2023-04-13T15:34:21.000Z</time>
      </trkpt>
      <trkpt lat="43.21479" lon="0.20541">
        <ele>361.39999389648</ele>
        <time>2023-04-13T15:34:26.000Z</time>
      </trkpt>
      <trkpt lat="43.2148" lon="0.20533">
        <ele>361.60000610352</ele>
        <time>2023-04-13T15:34:28.000Z</time>
      </trkpt>
      <trkpt lat="43.21482" lon="0.20521">
        <ele>361.79998779297</ele>
        <time>2023-04-13T15:34:31.000Z</time>
      </trkpt>
      <trkpt lat="43.21484" lon="0.205">
        <ele>362.39999389648</ele>
        <time>2023-04-13T15:34:36.000Z</time>
      </trkpt>
      <trkpt lat="43.21485" lon="0.20497">
        <ele>362.39999389648</ele>
        <time>2023-04-13T15:34:37.000Z</time>
      </trkpt>
      <trkpt lat="43.21485" lon="0.20494">
        <ele>362.60000610352</ele>
        <time>2023-04-13T15:34:38.000Z</time>
      </trkpt>
      <trkpt lat="43.21488" lon="0.20477">
        <ele>362.60000610352</ele>
        <time>2023-04-13T15:34:43.000Z</time>
      </trkpt>
      <trkpt lat="43.21494" lon="0.20455">
        <ele>363.39999389648</ele>
        <time>2023-04-13T15:34:49.000Z</time>
      </trkpt>
      <trkpt lat="43.21496" lon="0.20443">
        <ele>364</ele>
        <time>2023-04-13T15:34:52.000Z</time>
      </trkpt>
      <trkpt lat="43.21495" lon="0.20427">
        <ele>364.60000610352</ele>
        <time>2023-04-13T15:34:55.000Z</time>
      </trkpt>
      <trkpt lat="43.21496" lon="0.20409">
        <ele>365</ele>
        <time>2023-04-13T15:34:59.000Z</time>
      </trkpt>
      <trkpt lat="43.21502" lon="0.20385">
        <ele>365.79998779297</ele>
        <time>2023-04-13T15:35:06.000Z</time>
      </trkpt>
      <trkpt lat="43.21503" lon="0.20374">
        <ele>366.20001220703</ele>
        <time>2023-04-13T15:35:09.000Z</time>
      </trkpt>
      <trkpt lat="43.21504" lon="0.20365">
        <ele>366.79998779297</ele>
        <time>2023-04-13T15:35:12.000Z</time>
      </trkpt>
      <trkpt lat="43.21504" lon="0.20363">
        <ele>367</ele>
        <time>2023-04-13T15:35:13.000Z</time>
      </trkpt>
      <trkpt lat="43.21505" lon="0.20342">
        <ele>368.20001220703</ele>
        <time>2023-04-13T15:35:19.000Z</time>
      </trkpt>
      <trkpt lat="43.21509" lon="0.20313">
        <ele>368.60000610352</ele>
        <time>2023-04-13T15:35:26.000Z</time>
      </trkpt>
      <trkpt lat="43.2151" lon="0.20309">
        <ele>368.79998779297</ele>
        <time>2023-04-13T15:35:27.000Z</time>
      </trkpt>
      <trkpt lat="43.21518" lon="0.20287">
        <ele>369</ele>
        <time>2023-04-13T15:35:34.000Z</time>
      </trkpt>
      <trkpt lat="43.21519" lon="0.20283">
        <ele>369</ele>
        <time>2023-04-13T15:35:35.000Z</time>
      </trkpt>
      <trkpt lat="43.2152" lon="0.20277">
        <ele>369.20001220703</ele>
        <time>2023-04-13T15:35:37.000Z</time>
      </trkpt>
      <trkpt lat="43.21521" lon="0.20269">
        <ele>369.60000610352</ele>
        <time>2023-04-13T15:35:40.000Z</time>
      </trkpt>
      <trkpt lat="43.21522" lon="0.20253">
        <ele>370.39999389648</ele>
        <time>2023-04-13T15:35:45.000Z</time>
      </trkpt>
      <trkpt lat="43.21523" lon="0.2025">
        <ele>370.60000610352</ele>
        <time>2023-04-13T15:35:46.000Z</time>
      </trkpt>
      <trkpt lat="43.21525" lon="0.20233">
        <ele>371.60000610352</ele>
        <time>2023-04-13T15:35:51.000Z</time>
      </trkpt>
      <trkpt lat="43.21525" lon="0.20227">
        <ele>372</ele>
        <time>2023-04-13T15:35:53.000Z</time>
      </trkpt>
      <trkpt lat="43.21526" lon="0.20217">
        <ele>372.79998779297</ele>
        <time>2023-04-13T15:35:56.000Z</time>
      </trkpt>
      <trkpt lat="43.21526" lon="0.20191">
        <ele>373.79998779297</ele>
        <time>2023-04-13T15:36:01.000Z</time>
      </trkpt>
      <trkpt lat="43.21526" lon="0.20186">
        <ele>373.79998779297</ele>
        <time>2023-04-13T15:36:02.000Z</time>
      </trkpt>
      <trkpt lat="43.21526" lon="0.20182">
        <ele>374</ele>
        <time>2023-04-13T15:36:03.000Z</time>
      </trkpt>
      <trkpt lat="43.21529" lon="0.20155">
        <ele>374.79998779297</ele>
        <time>2023-04-13T15:36:10.000Z</time>
      </trkpt>
      <trkpt lat="43.21529" lon="0.20152">
        <ele>375.39999389648</ele>
        <time>2023-04-13T15:36:11.000Z</time>
      </trkpt>
      <trkpt lat="43.2153" lon="0.20143">
        <ele>376.39999389648</ele>
        <time>2023-04-13T15:36:14.000Z</time>
      </trkpt>
      <trkpt lat="43.21531" lon="0.20135">
        <ele>377.39999389648</ele>
        <time>2023-04-13T15:36:17.000Z</time>
      </trkpt>
      <trkpt lat="43.21532" lon="0.20129">
        <ele>378</ele>
        <time>2023-04-13T15:36:19.000Z</time>
      </trkpt>
      <trkpt lat="43.21532" lon="0.20125">
        <ele>378.60000610352</ele>
        <time>2023-04-13T15:36:21.000Z</time>
      </trkpt>
      <trkpt lat="43.21535" lon="0.20114">
        <ele>379.79998779297</ele>
        <time>2023-04-13T15:36:25.000Z</time>
      </trkpt>
      <trkpt lat="43.21536" lon="0.20104">
        <ele>380.79998779297</ele>
        <time>2023-04-13T15:36:28.000Z</time>
      </trkpt>
      <trkpt lat="43.21541" lon="0.20079">
        <ele>381.79998779297</ele>
        <time>2023-04-13T15:36:33.000Z</time>
      </trkpt>
      <trkpt lat="43.21542" lon="0.20075">
        <ele>382.20001220703</ele>
        <time>2023-04-13T15:36:34.000Z</time>
      </trkpt>
      <trkpt lat="43.21546" lon="0.20059">
        <ele>383.39999389648</ele>
        <time>2023-04-13T15:36:38.000Z</time>
      </trkpt>
      <trkpt lat="43.21547" lon="0.20055">
        <ele>383.60000610352</ele>
        <time>2023-04-13T15:36:39.000Z</time>
      </trkpt>
      <trkpt lat="43.21549" lon="0.20051">
        <ele>383.79998779297</ele>
        <time>2023-04-13T15:36:40.000Z</time>
      </trkpt>
      <trkpt lat="43.21554" lon="0.20026">
        <ele>384.20001220703</ele>
        <time>2023-04-13T15:36:46.000Z</time>
      </trkpt>
      <trkpt lat="43.21555" lon="0.20022">
        <ele>384.60000610352</ele>
        <time>2023-04-13T15:36:47.000Z</time>
      </trkpt>
      <trkpt lat="43.21556" lon="0.20018">
        <ele>385.20001220703</ele>
        <time>2023-04-13T15:36:48.000Z</time>
      </trkpt>
      <trkpt lat="43.21558" lon="0.2001">
        <ele>385.60000610352</ele>
        <time>2023-04-13T15:36:50.000Z</time>
      </trkpt>
      <trkpt lat="43.21563" lon="0.19983">
        <ele>386</ele>
        <time>2023-04-13T15:36:56.000Z</time>
      </trkpt>
      <trkpt lat="43.21564" lon="0.19978">
        <ele>386.20001220703</ele>
        <time>2023-04-13T15:36:57.000Z</time>
      </trkpt>
      <trkpt lat="43.21567" lon="0.19955">
        <ele>386</ele>
        <time>2023-04-13T15:37:02.000Z</time>
      </trkpt>
      <trkpt lat="43.21572" lon="0.19942">
        <ele>385</ele>
        <time>2023-04-13T15:37:06.000Z</time>
      </trkpt>
      <trkpt lat="43.21576" lon="0.19938">
        <ele>384.60000610352</ele>
        <time>2023-04-13T15:37:08.000Z</time>
      </trkpt>
      <trkpt lat="43.21586" lon="0.19936">
        <ele>383.39999389648</ele>
        <time>2023-04-13T15:37:11.000Z</time>
      </trkpt>
      <trkpt lat="43.21597" lon="0.19933">
        <ele>383.60000610352</ele>
        <time>2023-04-13T15:37:15.000Z</time>
      </trkpt>
      <trkpt lat="43.21617" lon="0.19932">
        <ele>382.79998779297</ele>
        <time>2023-04-13T15:37:22.000Z</time>
      </trkpt>
      <trkpt lat="43.21621" lon="0.19931">
        <ele>382.79998779297</ele>
        <time>2023-04-13T15:37:23.000Z</time>
      </trkpt>
      <trkpt lat="43.21626" lon="0.19931">
        <ele>382.60000610352</ele>
        <time>2023-04-13T15:37:25.000Z</time>
      </trkpt>
      <trkpt lat="43.21633" lon="0.19932">
        <ele>382.20001220703</ele>
        <time>2023-04-13T15:37:27.000Z</time>
      </trkpt>
      <trkpt lat="43.21636" lon="0.19932">
        <ele>382</ele>
        <time>2023-04-13T15:37:28.000Z</time>
      </trkpt>
      <trkpt lat="43.21639" lon="0.19933">
        <ele>381.39999389648</ele>
        <time>2023-04-13T15:37:29.000Z</time>
      </trkpt>
      <trkpt lat="43.21643" lon="0.19934">
        <ele>381</ele>
        <time>2023-04-13T15:37:30.000Z</time>
      </trkpt>
      <trkpt lat="43.2165" lon="0.19936">
        <ele>380.20001220703</ele>
        <time>2023-04-13T15:37:32.000Z</time>
      </trkpt>
      <trkpt lat="43.21653" lon="0.19937">
        <ele>380</ele>
        <time>2023-04-13T15:37:33.000Z</time>
      </trkpt>
      <trkpt lat="43.2167" lon="0.19944">
        <ele>378.79998779297</ele>
        <time>2023-04-13T15:37:38.000Z</time>
      </trkpt>
      <trkpt lat="43.2168" lon="0.19948">
        <ele>378</ele>
        <time>2023-04-13T15:37:41.000Z</time>
      </trkpt>
      <trkpt lat="43.21683" lon="0.1995">
        <ele>377.79998779297</ele>
        <time>2023-04-13T15:37:42.000Z</time>
      </trkpt>
      <trkpt lat="43.21686" lon="0.19951">
        <ele>377.60000610352</ele>
        <time>2023-04-13T15:37:43.000Z</time>
      </trkpt>
      <trkpt lat="43.2169" lon="0.19952">
        <ele>377.20001220703</ele>
        <time>2023-04-13T15:38:15.000Z</time>
      </trkpt>
      <trkpt lat="43.2169" lon="0.19952">
        <ele>377.20001220703</ele>
        <time>2023-04-13T15:38:16.000Z</time>
      </trkpt>
      <trkpt lat="43.21699" lon="0.19955">
        <ele>376.60000610352</ele>
        <time>2023-04-13T15:38:20.000Z</time>
      </trkpt>
      <trkpt lat="43.21714" lon="0.19959">
        <ele>375.60000610352</ele>
        <time>2023-04-13T15:38:24.000Z</time>
      </trkpt>
      <trkpt lat="43.21725" lon="0.19962">
        <ele>375</ele>
        <time>2023-04-13T15:38:27.000Z</time>
      </trkpt>
      <trkpt lat="43.21736" lon="0.19965">
        <ele>374.60000610352</ele>
        <time>2023-04-13T15:38:30.000Z</time>
      </trkpt>
      <trkpt lat="43.21752" lon="0.19968">
        <ele>373.39999389648</ele>
        <time>2023-04-13T15:38:35.000Z</time>
      </trkpt>
      <trkpt lat="43.2177" lon="0.19975">
        <ele>372.20001220703</ele>
        <time>2023-04-13T15:38:41.000Z</time>
      </trkpt>
      <trkpt lat="43.21773" lon="0.19977">
        <ele>372</ele>
        <time>2023-04-13T15:38:42.000Z</time>
      </trkpt>
      <trkpt lat="43.21793" lon="0.19984">
        <ele>371.60000610352</ele>
        <time>2023-04-13T15:38:47.000Z</time>
      </trkpt>
      <trkpt lat="43.21802" lon="0.19986">
        <ele>371.39999389648</ele>
        <time>2023-04-13T15:38:49.000Z</time>
      </trkpt>
      <trkpt lat="43.21814" lon="0.19992">
        <ele>371.20001220703</ele>
        <time>2023-04-13T15:38:54.000Z</time>
      </trkpt>
      <trkpt lat="43.21822" lon="0.19993">
        <ele>370.79998779297</ele>
        <time>2023-04-13T15:38:57.000Z</time>
      </trkpt>
      <trkpt lat="43.21827" lon="0.19998">
        <ele>371.79998779297</ele>
        <time>2023-04-13T15:39:06.000Z</time>
      </trkpt>
      <trkpt lat="43.21831" lon="0.20001">
        <ele>371.79998779297</ele>
        <time>2023-04-13T15:39:08.000Z</time>
      </trkpt>
      <trkpt lat="43.21838" lon="0.20009">
        <ele>371.60000610352</ele>
        <time>2023-04-13T15:39:11.000Z</time>
      </trkpt>
      <trkpt lat="43.21839" lon="0.20013">
        <ele>371.39999389648</ele>
        <time>2023-04-13T15:39:12.000Z</time>
      </trkpt>
      <trkpt lat="43.2184" lon="0.20037">
        <ele>370.20001220703</ele>
        <time>2023-04-13T15:39:17.000Z</time>
      </trkpt>
      <trkpt lat="43.2184" lon="0.20042">
        <ele>369.79998779297</ele>
        <time>2023-04-13T15:39:18.000Z</time>
      </trkpt>
      <trkpt lat="43.21843" lon="0.20069">
        <ele>369.39999389648</ele>
        <time>2023-04-13T15:39:24.000Z</time>
      </trkpt>
      <trkpt lat="43.21844" lon="0.20074">
        <ele>369.39999389648</ele>
        <time>2023-04-13T15:39:25.000Z</time>
      </trkpt>
      <trkpt lat="43.21847" lon="0.20103">
        <ele>369.20001220703</ele>
        <time>2023-04-13T15:39:31.000Z</time>
      </trkpt>
      <trkpt lat="43.21848" lon="0.20122">
        <ele>368.60000610352</ele>
        <time>2023-04-13T15:39:35.000Z</time>
      </trkpt>
      <trkpt lat="43.21849" lon="0.20136">
        <ele>368.39999389648</ele>
        <time>2023-04-13T15:39:38.000Z</time>
      </trkpt>
      <trkpt lat="43.21849" lon="0.20146">
        <ele>368.20001220703</ele>
        <time>2023-04-13T15:39:40.000Z</time>
      </trkpt>
      <trkpt lat="43.21849" lon="0.20165">
        <ele>368.39999389648</ele>
        <time>2023-04-13T15:39:44.000Z</time>
      </trkpt>
      <trkpt lat="43.21849" lon="0.2017">
        <ele>368.20001220703</ele>
        <time>2023-04-13T15:39:45.000Z</time>
      </trkpt>
      <trkpt lat="43.2185" lon="0.20184">
        <ele>368.39999389648</ele>
        <time>2023-04-13T15:39:48.000Z</time>
      </trkpt>
      <trkpt lat="43.21851" lon="0.20201">
        <ele>368.39999389648</ele>
        <time>2023-04-13T15:39:52.000Z</time>
      </trkpt>
      <trkpt lat="43.21854" lon="0.20227">
        <ele>368.60000610352</ele>
        <time>2023-04-13T15:39:58.000Z</time>
      </trkpt>
      <trkpt lat="43.21854" lon="0.20232">
        <ele>368.60000610352</ele>
        <time>2023-04-13T15:39:59.000Z</time>
      </trkpt>
      <trkpt lat="43.21855" lon="0.20261">
        <ele>369.20001220703</ele>
        <time>2023-04-13T15:40:05.000Z</time>
      </trkpt>
      <trkpt lat="43.21856" lon="0.20289">
        <ele>368.79998779297</ele>
        <time>2023-04-13T15:40:11.000Z</time>
      </trkpt>
      <trkpt lat="43.21856" lon="0.20294">
        <ele>368.60000610352</ele>
        <time>2023-04-13T15:40:12.000Z</time>
      </trkpt>
      <trkpt lat="43.21859" lon="0.20321">
        <ele>368.39999389648</ele>
        <time>2023-04-13T15:40:18.000Z</time>
      </trkpt>
      <trkpt lat="43.21861" lon="0.20343">
        <ele>368.39999389648</ele>
        <time>2023-04-13T15:40:24.000Z</time>
      </trkpt>
      <trkpt lat="43.21864" lon="0.20342">
        <ele>368.60000610352</ele>
        <time>2023-04-13T15:40:26.000Z</time>
      </trkpt>
      <trkpt lat="43.21865" lon="0.20335">
        <ele>368.60000610352</ele>
        <time>2023-04-13T15:40:28.000Z</time>
      </trkpt>
      <trkpt lat="43.21872" lon="0.20313">
        <ele>369.79998779297</ele>
        <time>2023-04-13T15:40:34.000Z</time>
      </trkpt>
      <trkpt lat="43.21873" lon="0.20309">
        <ele>370</ele>
        <time>2023-04-13T15:40:35.000Z</time>
      </trkpt>
      <trkpt lat="43.2188" lon="0.20296">
        <ele>371.20001220703</ele>
        <time>2023-04-13T15:40:39.000Z</time>
      </trkpt>
      <trkpt lat="43.21881" lon="0.20292">
        <ele>371.39999389648</ele>
        <time>2023-04-13T15:40:40.000Z</time>
      </trkpt>
      <trkpt lat="43.21883" lon="0.20285">
        <ele>372</ele>
        <time>2023-04-13T15:40:42.000Z</time>
      </trkpt>
      <trkpt lat="43.21885" lon="0.20281">
        <ele>372.20001220703</ele>
        <time>2023-04-13T15:40:43.000Z</time>
      </trkpt>
      <trkpt lat="43.21892" lon="0.20257">
        <ele>373</ele>
        <time>2023-04-13T15:40:49.000Z</time>
      </trkpt>
      <trkpt lat="43.21894" lon="0.20254">
        <ele>373.20001220703</ele>
        <time>2023-04-13T15:40:50.000Z</time>
      </trkpt>
      <trkpt lat="43.21895" lon="0.2025">
        <ele>373.39999389648</ele>
        <time>2023-04-13T15:40:51.000Z</time>
      </trkpt>
      <trkpt lat="43.21903" lon="0.20237">
        <ele>374.20001220703</ele>
        <time>2023-04-13T15:40:55.000Z</time>
      </trkpt>
      <trkpt lat="43.21911" lon="0.20219">
        <ele>374</ele>
        <time>2023-04-13T15:41:00.000Z</time>
      </trkpt>
      <trkpt lat="43.21925" lon="0.20208">
        <ele>374.39999389648</ele>
        <time>2023-04-13T15:41:05.000Z</time>
      </trkpt>
      <trkpt lat="43.21928" lon="0.20207">
        <ele>374.60000610352</ele>
        <time>2023-04-13T15:41:06.000Z</time>
      </trkpt>
      <trkpt lat="43.21943" lon="0.2021">
        <ele>375.39999389648</ele>
        <time>2023-04-13T15:41:11.000Z</time>
      </trkpt>
      <trkpt lat="43.21946" lon="0.20211">
        <ele>375.60000610352</ele>
        <time>2023-04-13T15:41:12.000Z</time>
      </trkpt>
      <trkpt lat="43.2196" lon="0.20223">
        <ele>376.79998779297</ele>
        <time>2023-04-13T15:41:17.000Z</time>
      </trkpt>
      <trkpt lat="43.21968" lon="0.20229">
        <ele>377.60000610352</ele>
        <time>2023-04-13T15:41:20.000Z</time>
      </trkpt>
      <trkpt lat="43.21971" lon="0.20231">
        <ele>377.79998779297</ele>
        <time>2023-04-13T15:41:21.000Z</time>
      </trkpt>
      <trkpt lat="43.21985" lon="0.2024">
        <ele>379.20001220703</ele>
        <time>2023-04-13T15:41:27.000Z</time>
      </trkpt>
      <trkpt lat="43.21987" lon="0.20241">
        <ele>379.60000610352</ele>
        <time>2023-04-13T15:41:28.000Z</time>
      </trkpt>
      <trkpt lat="43.21997" lon="0.20245">
        <ele>380.39999389648</ele>
        <time>2023-04-13T15:41:32.000Z</time>
      </trkpt>
      <trkpt lat="43.22002" lon="0.20245">
        <ele>380.39999389648</ele>
        <time>2023-04-13T15:41:34.000Z</time>
      </trkpt>
      <trkpt lat="43.22021" lon="0.20249">
        <ele>380.79998779297</ele>
        <time>2023-04-13T15:41:41.000Z</time>
      </trkpt>
      <trkpt lat="43.22025" lon="0.2025">
        <ele>381</ele>
        <time>2023-04-13T15:41:43.000Z</time>
      </trkpt>
      <trkpt lat="43.22043" lon="0.2025">
        <ele>381.39999389648</ele>
        <time>2023-04-13T15:41:49.000Z</time>
      </trkpt>
      <trkpt lat="43.22049" lon="0.20249">
        <ele>381.60000610352</ele>
        <time>2023-04-13T15:41:51.000Z</time>
      </trkpt>
      <trkpt lat="43.22071" lon="0.20251">
        <ele>381.20001220703</ele>
        <time>2023-04-13T15:41:58.000Z</time>
      </trkpt>
      <trkpt lat="43.22074" lon="0.20251">
        <ele>381.20001220703</ele>
        <time>2023-04-13T15:41:59.000Z</time>
      </trkpt>
      <trkpt lat="43.22091" lon="0.20248">
        <ele>380.39999389648</ele>
        <time>2023-04-13T15:42:05.000Z</time>
      </trkpt>
      <trkpt lat="43.22112" lon="0.20245">
        <ele>379.20001220703</ele>
        <time>2023-04-13T15:42:12.000Z</time>
      </trkpt>
      <trkpt lat="43.22123" lon="0.20244">
        <ele>378.39999389648</ele>
        <time>2023-04-13T15:42:15.000Z</time>
      </trkpt>
      <trkpt lat="43.22126" lon="0.20244">
        <ele>378.20001220703</ele>
        <time>2023-04-13T15:42:16.000Z</time>
      </trkpt>
      <trkpt lat="43.22145" lon="0.20243">
        <ele>377.60000610352</ele>
        <time>2023-04-13T15:42:21.000Z</time>
      </trkpt>
      <trkpt lat="43.22156" lon="0.2024">
        <ele>377.39999389648</ele>
        <time>2023-04-13T15:42:24.000Z</time>
      </trkpt>
      <trkpt lat="43.22162" lon="0.2024">
        <ele>377.20001220703</ele>
        <time>2023-04-13T15:42:26.000Z</time>
      </trkpt>
      <trkpt lat="43.22171" lon="0.20236">
        <ele>377</ele>
        <time>2023-04-13T15:42:29.000Z</time>
      </trkpt>
      <trkpt lat="43.22191" lon="0.20231">
        <ele>376.60000610352</ele>
        <time>2023-04-13T15:42:36.000Z</time>
      </trkpt>
      <trkpt lat="43.22194" lon="0.20231">
        <ele>376.39999389648</ele>
        <time>2023-04-13T15:42:37.000Z</time>
      </trkpt>
      <trkpt lat="43.22213" lon="0.20227">
        <ele>376.39999389648</ele>
        <time>2023-04-13T15:42:44.000Z</time>
      </trkpt>
      <trkpt lat="43.22219" lon="0.20225">
        <ele>376.60000610352</ele>
        <time>2023-04-13T15:42:46.000Z</time>
      </trkpt>
      <trkpt lat="43.22236" lon="0.20223">
        <ele>376.39999389648</ele>
        <time>2023-04-13T15:42:51.000Z</time>
      </trkpt>
      <trkpt lat="43.22247" lon="0.20222">
        <ele>376.60000610352</ele>
        <time>2023-04-13T15:42:54.000Z</time>
      </trkpt>
      <trkpt lat="43.22265" lon="0.20229">
        <ele>376.39999389648</ele>
        <time>2023-04-13T15:42:59.000Z</time>
      </trkpt>
      <trkpt lat="43.22269" lon="0.20232">
        <ele>376</ele>
        <time>2023-04-13T15:43:00.000Z</time>
      </trkpt>
      <trkpt lat="43.2229" lon="0.20241">
        <ele>375.39999389648</ele>
        <time>2023-04-13T15:43:05.000Z</time>
      </trkpt>
      <trkpt lat="43.22294" lon="0.20242">
        <ele>375.39999389648</ele>
        <time>2023-04-13T15:43:06.000Z</time>
      </trkpt>
      <trkpt lat="43.22306" lon="0.20251">
        <ele>375</ele>
        <time>2023-04-13T15:43:10.000Z</time>
      </trkpt>
      <trkpt lat="43.2231" lon="0.20255">
        <ele>375</ele>
        <time>2023-04-13T15:43:12.000Z</time>
      </trkpt>
      <trkpt lat="43.22322" lon="0.20273">
        <ele>374.60000610352</ele>
        <time>2023-04-13T15:43:18.000Z</time>
      </trkpt>
      <trkpt lat="43.22324" lon="0.20276">
        <ele>374.60000610352</ele>
        <time>2023-04-13T15:43:19.000Z</time>
      </trkpt>
      <trkpt lat="43.22329" lon="0.20283">
        <ele>374.20001220703</ele>
        <time>2023-04-13T15:43:22.000Z</time>
      </trkpt>
      <trkpt lat="43.22342" lon="0.20296">
        <ele>374</ele>
        <time>2023-04-13T15:43:27.000Z</time>
      </trkpt>
      <trkpt lat="43.22358" lon="0.20307">
        <ele>373.20001220703</ele>
        <time>2023-04-13T15:43:31.000Z</time>
      </trkpt>
      <trkpt lat="43.22362" lon="0.2031">
        <ele>373.20001220703</ele>
        <time>2023-04-13T15:43:32.000Z</time>
      </trkpt>
      <trkpt lat="43.22365" lon="0.20313">
        <ele>372.79998779297</ele>
        <time>2023-04-13T15:43:33.000Z</time>
      </trkpt>
      <trkpt lat="43.22378" lon="0.20322">
        <ele>371.60000610352</ele>
        <time>2023-04-13T15:43:37.000Z</time>
      </trkpt>
      <trkpt lat="43.22387" lon="0.20329">
        <ele>370.39999389648</ele>
        <time>2023-04-13T15:43:40.000Z</time>
      </trkpt>
      <trkpt lat="43.22402" lon="0.20343">
        <ele>369.79998779297</ele>
        <time>2023-04-13T15:43:46.000Z</time>
      </trkpt>
      <trkpt lat="43.22414" lon="0.20353">
        <ele>369.39999389648</ele>
        <time>2023-04-13T15:43:50.000Z</time>
      </trkpt>
      <trkpt lat="43.22416" lon="0.20356">
        <ele>369.79998779297</ele>
        <time>2023-04-13T15:43:52.000Z</time>
      </trkpt>
      <trkpt lat="43.22426" lon="0.20361">
        <ele>370</ele>
        <time>2023-04-13T15:43:58.000Z</time>
      </trkpt>
      <trkpt lat="43.22439" lon="0.20378">
        <ele>370.20001220703</ele>
        <time>2023-04-13T15:44:03.000Z</time>
      </trkpt>
      <trkpt lat="43.22441" lon="0.20382">
        <ele>370.39999389648</ele>
        <time>2023-04-13T15:44:04.000Z</time>
      </trkpt>
      <trkpt lat="43.22446" lon="0.20394">
        <ele>370.79998779297</ele>
        <time>2023-04-13T15:44:07.000Z</time>
      </trkpt>
      <trkpt lat="43.22447" lon="0.20398">
        <ele>370.60000610352</ele>
        <time>2023-04-13T15:44:08.000Z</time>
      </trkpt>
      <trkpt lat="43.2245" lon="0.20405">
        <ele>370.60000610352</ele>
        <time>2023-04-13T15:44:10.000Z</time>
      </trkpt>
      <trkpt lat="43.2246" lon="0.20427">
        <ele>370.60000610352</ele>
        <time>2023-04-13T15:44:16.000Z</time>
      </trkpt>
      <trkpt lat="43.22475" lon="0.20442">
        <ele>370</ele>
        <time>2023-04-13T15:44:22.000Z</time>
      </trkpt>
      <trkpt lat="43.22478" lon="0.20443">
        <ele>370</ele>
        <time>2023-04-13T15:44:23.000Z</time>
      </trkpt>
      <trkpt lat="43.22487" lon="0.20448">
        <ele>369.79998779297</ele>
        <time>2023-04-13T15:44:26.000Z</time>
      </trkpt>
      <trkpt lat="43.22493" lon="0.20457">
        <ele>369.39999389648</ele>
        <time>2023-04-13T15:44:29.000Z</time>
      </trkpt>
      <trkpt lat="43.22495" lon="0.20461">
        <ele>369.20001220703</ele>
        <time>2023-04-13T15:44:30.000Z</time>
      </trkpt>
      <trkpt lat="43.22505" lon="0.20476">
        <ele>368</ele>
        <time>2023-04-13T15:44:34.000Z</time>
      </trkpt>
      <trkpt lat="43.22511" lon="0.20484">
        <ele>367.20001220703</ele>
        <time>2023-04-13T15:44:36.000Z</time>
      </trkpt>
      <trkpt lat="43.22517" lon="0.20492">
        <ele>366.60000610352</ele>
        <time>2023-04-13T15:44:38.000Z</time>
      </trkpt>
      <trkpt lat="43.22528" lon="0.20503">
        <ele>365.60000610352</ele>
        <time>2023-04-13T15:44:42.000Z</time>
      </trkpt>
      <trkpt lat="43.22531" lon="0.20505">
        <ele>365.39999389648</ele>
        <time>2023-04-13T15:44:43.000Z</time>
      </trkpt>
      <trkpt lat="43.22548" lon="0.20523">
        <ele>364.39999389648</ele>
        <time>2023-04-13T15:44:49.000Z</time>
      </trkpt>
      <trkpt lat="43.22551" lon="0.20526">
        <ele>364.60000610352</ele>
        <time>2023-04-13T15:44:50.000Z</time>
      </trkpt>
      <trkpt lat="43.22567" lon="0.2054">
        <ele>365.39999389648</ele>
        <time>2023-04-13T15:44:56.000Z</time>
      </trkpt>
      <trkpt lat="43.22577" lon="0.20546">
        <ele>365.39999389648</ele>
        <time>2023-04-13T15:44:59.000Z</time>
      </trkpt>
      <trkpt lat="43.2258" lon="0.20549">
        <ele>365.39999389648</ele>
        <time>2023-04-13T15:45:00.000Z</time>
      </trkpt>
      <trkpt lat="43.22585" lon="0.20556">
        <ele>364.39999389648</ele>
        <time>2023-04-13T15:45:02.000Z</time>
      </trkpt>
      <trkpt lat="43.22592" lon="0.20564">
        <ele>363.39999389648</ele>
        <time>2023-04-13T15:45:05.000Z</time>
      </trkpt>
      <trkpt lat="43.22597" lon="0.20568">
        <ele>363.20001220703</ele>
        <time>2023-04-13T15:45:07.000Z</time>
      </trkpt>
      <trkpt lat="43.22608" lon="0.20575">
        <ele>362.20001220703</ele>
        <time>2023-04-13T15:45:11.000Z</time>
      </trkpt>
      <trkpt lat="43.22617" lon="0.20587">
        <ele>361.39999389648</ele>
        <time>2023-04-13T15:45:15.000Z</time>
      </trkpt>
      <trkpt lat="43.22621" lon="0.20594">
        <ele>361</ele>
        <time>2023-04-13T15:45:17.000Z</time>
      </trkpt>
      <trkpt lat="43.22632" lon="0.20599">
        <ele>361</ele>
        <time>2023-04-13T15:45:21.000Z</time>
      </trkpt>
      <trkpt lat="43.22651" lon="0.20595">
        <ele>360.79998779297</ele>
        <time>2023-04-13T15:45:27.000Z</time>
      </trkpt>
      <trkpt lat="43.22654" lon="0.20594">
        <ele>361</ele>
        <time>2023-04-13T15:45:28.000Z</time>
      </trkpt>
      <trkpt lat="43.22673" lon="0.20591">
        <ele>361.60000610352</ele>
        <time>2023-04-13T15:45:34.000Z</time>
      </trkpt>
      <trkpt lat="43.22676" lon="0.2059">
        <ele>362</ele>
        <time>2023-04-13T15:45:35.000Z</time>
      </trkpt>
      <trkpt lat="43.22682" lon="0.20588">
        <ele>362.20001220703</ele>
        <time>2023-04-13T15:45:37.000Z</time>
      </trkpt>
      <trkpt lat="43.22694" lon="0.20584">
        <ele>363.20001220703</ele>
        <time>2023-04-13T15:45:41.000Z</time>
      </trkpt>
      <trkpt lat="43.22706" lon="0.20581">
        <ele>363.60000610352</ele>
        <time>2023-04-13T15:45:45.000Z</time>
      </trkpt>
      <trkpt lat="43.22709" lon="0.20581">
        <ele>363.60000610352</ele>
        <time>2023-04-13T15:45:46.000Z</time>
      </trkpt>
      <trkpt lat="43.22723" lon="0.20577">
        <ele>361.79998779297</ele>
        <time>2023-04-13T15:45:50.000Z</time>
      </trkpt>
      <trkpt lat="43.22734" lon="0.20575">
        <ele>360.60000610352</ele>
        <time>2023-04-13T15:45:53.000Z</time>
      </trkpt>
      <trkpt lat="43.22741" lon="0.20574">
        <ele>360</ele>
        <time>2023-04-13T15:45:55.000Z</time>
      </trkpt>
      <trkpt lat="43.22761" lon="0.2057">
        <ele>360.39999389648</ele>
        <time>2023-04-13T15:46:01.000Z</time>
      </trkpt>
      <trkpt lat="43.22774" lon="0.20565">
        <ele>359.79998779297</ele>
        <time>2023-04-13T15:46:05.000Z</time>
      </trkpt>
      <trkpt lat="43.22777" lon="0.20563">
        <ele>359.39999389648</ele>
        <time>2023-04-13T15:46:06.000Z</time>
      </trkpt>
      <trkpt lat="43.22786" lon="0.20556">
        <ele>358</ele>
        <time>2023-04-13T15:46:09.000Z</time>
      </trkpt>
      <trkpt lat="43.22795" lon="0.20548">
        <ele>356.39999389648</ele>
        <time>2023-04-13T15:46:12.000Z</time>
      </trkpt>
      <trkpt lat="43.22801" lon="0.20544">
        <ele>354.60000610352</ele>
        <time>2023-04-13T15:46:14.000Z</time>
      </trkpt>
      <trkpt lat="43.22807" lon="0.20541">
        <ele>353.39999389648</ele>
        <time>2023-04-13T15:46:16.000Z</time>
      </trkpt>
      <trkpt lat="43.22814" lon="0.20538">
        <ele>352</ele>
        <time>2023-04-13T15:46:18.000Z</time>
      </trkpt>
      <trkpt lat="43.22823" lon="0.20532">
        <ele>350.79998779297</ele>
        <time>2023-04-13T15:46:21.000Z</time>
      </trkpt>
      <trkpt lat="43.22829" lon="0.20528">
        <ele>349.39999389648</ele>
        <time>2023-04-13T15:46:23.000Z</time>
      </trkpt>
      <trkpt lat="43.22839" lon="0.20525">
        <ele>348.20001220703</ele>
        <time>2023-04-13T15:46:26.000Z</time>
      </trkpt>
      <trkpt lat="43.22842" lon="0.20524">
        <ele>347.79998779297</ele>
        <time>2023-04-13T15:46:27.000Z</time>
      </trkpt>
      <trkpt lat="43.22849" lon="0.20525">
        <ele>347.20001220703</ele>
        <time>2023-04-13T15:46:29.000Z</time>
      </trkpt>
      <trkpt lat="43.22853" lon="0.20533">
        <ele>346.60000610352</ele>
        <time>2023-04-13T15:46:31.000Z</time>
      </trkpt>
      <trkpt lat="43.22854" lon="0.20538">
        <ele>344.39999389648</ele>
        <time>2023-04-13T15:46:32.000Z</time>
      </trkpt>
      <trkpt lat="43.22855" lon="0.20543">
        <ele>342</ele>
        <time>2023-04-13T15:46:33.000Z</time>
      </trkpt>
      <trkpt lat="43.22858" lon="0.2056">
        <ele>340.79998779297</ele>
        <time>2023-04-13T15:46:36.000Z</time>
      </trkpt>
      <trkpt lat="43.22859" lon="0.20565">
        <ele>340.39999389648</ele>
        <time>2023-04-13T15:46:37.000Z</time>
      </trkpt>
      <trkpt lat="43.22859" lon="0.2057">
        <ele>342</ele>
        <time>2023-04-13T15:46:38.000Z</time>
      </trkpt>
      <trkpt lat="43.22865" lon="0.20588">
        <ele>341.60000610352</ele>
        <time>2023-04-13T15:46:42.000Z</time>
      </trkpt>
      <trkpt lat="43.22867" lon="0.20597">
        <ele>341</ele>
        <time>2023-04-13T15:46:44.000Z</time>
      </trkpt>
      <trkpt lat="43.22871" lon="0.20614">
        <ele>341.20001220703</ele>
        <time>2023-04-13T15:46:48.000Z</time>
      </trkpt>
      <trkpt lat="43.22877" lon="0.20634">
        <ele>341.39999389648</ele>
        <time>2023-04-13T15:46:53.000Z</time>
      </trkpt>
      <trkpt lat="43.22879" lon="0.20656">
        <ele>342</ele>
        <time>2023-04-13T15:46:58.000Z</time>
      </trkpt>
      <trkpt lat="43.22878" lon="0.20667">
        <ele>342.20001220703</ele>
        <time>2023-04-13T15:47:00.000Z</time>
      </trkpt>
      <trkpt lat="43.22879" lon="0.2069">
        <ele>342.20001220703</ele>
        <time>2023-04-13T15:47:04.000Z</time>
      </trkpt>
      <trkpt lat="43.22882" lon="0.20712">
        <ele>341.39999389648</ele>
        <time>2023-04-13T15:47:09.000Z</time>
      </trkpt>
      <trkpt lat="43.22883" lon="0.20722">
        <ele>341</ele>
        <time>2023-04-13T15:47:11.000Z</time>
      </trkpt>
      <trkpt lat="43.22886" lon="0.20742">
        <ele>340.20001220703</ele>
        <time>2023-04-13T15:47:15.000Z</time>
      </trkpt>
      <trkpt lat="43.22886" lon="0.20761">
        <ele>340.20001220703</ele>
        <time>2023-04-13T15:47:19.000Z</time>
      </trkpt>
      <trkpt lat="43.22887" lon="0.2077">
        <ele>340</ele>
        <time>2023-04-13T15:47:21.000Z</time>
      </trkpt>
      <trkpt lat="43.2289" lon="0.20789">
        <ele>338.79998779297</ele>
        <time>2023-04-13T15:47:25.000Z</time>
      </trkpt>
      <trkpt lat="43.2289" lon="0.20797">
        <ele>337.79998779297</ele>
        <time>2023-04-13T15:47:27.000Z</time>
      </trkpt>
      <trkpt lat="43.22891" lon="0.20801">
        <ele>337.39999389648</ele>
        <time>2023-04-13T15:47:28.000Z</time>
      </trkpt>
      <trkpt lat="43.22893" lon="0.20823">
        <ele>336.39999389648</ele>
        <time>2023-04-13T15:47:33.000Z</time>
      </trkpt>
      <trkpt lat="43.22894" lon="0.20838">
        <ele>335.39999389648</ele>
        <time>2023-04-13T15:47:36.000Z</time>
      </trkpt>
      <trkpt lat="43.22895" lon="0.20856">
        <ele>334</ele>
        <time>2023-04-13T15:47:40.000Z</time>
      </trkpt>
      <trkpt lat="43.22896" lon="0.20871">
        <ele>332.39999389648</ele>
        <time>2023-04-13T15:47:43.000Z</time>
      </trkpt>
      <trkpt lat="43.22898" lon="0.20887">
        <ele>330.79998779297</ele>
        <time>2023-04-13T15:47:46.000Z</time>
      </trkpt>
      <trkpt lat="43.22898" lon="0.20894">
        <ele>330.60000610352</ele>
        <time>2023-04-13T15:47:47.000Z</time>
      </trkpt>
      <trkpt lat="43.22902" lon="0.20922">
        <ele>330.20001220703</ele>
        <time>2023-04-13T15:47:53.000Z</time>
      </trkpt>
      <trkpt lat="43.22901" lon="0.20926">
        <ele>329.60000610352</ele>
        <time>2023-04-13T15:47:54.000Z</time>
      </trkpt>
      <trkpt lat="43.22893" lon="0.20929">
        <ele>328.79998779297</ele>
        <time>2023-04-13T15:47:57.000Z</time>
      </trkpt>
      <trkpt lat="43.22889" lon="0.20928">
        <ele>328.60000610352</ele>
        <time>2023-04-13T15:47:58.000Z</time>
      </trkpt>
      <trkpt lat="43.22878" lon="0.20929">
        <ele>328.20001220703</ele>
        <time>2023-04-13T15:48:01.000Z</time>
      </trkpt>
      <trkpt lat="43.22871" lon="0.20928">
        <ele>327.79998779297</ele>
        <time>2023-04-13T15:48:03.000Z</time>
      </trkpt>
      <trkpt lat="43.22868" lon="0.20927">
        <ele>327.39999389648</ele>
        <time>2023-04-13T15:48:04.000Z</time>
      </trkpt>
      <trkpt lat="43.22865" lon="0.20925">
        <ele>327</ele>
        <time>2023-04-13T15:48:05.000Z</time>
      </trkpt>
      <trkpt lat="43.22859" lon="0.20922">
        <ele>326.39999389648</ele>
        <time>2023-04-13T15:48:07.000Z</time>
      </trkpt>
      <trkpt lat="43.22856" lon="0.2092">
        <ele>325.79998779297</ele>
        <time>2023-04-13T15:48:08.000Z</time>
      </trkpt>
      <trkpt lat="43.22853" lon="0.20918">
        <ele>325.20001220703</ele>
        <time>2023-04-13T15:48:09.000Z</time>
      </trkpt>
      <trkpt lat="43.22846" lon="0.2091">
        <ele>324</ele>
        <time>2023-04-13T15:48:12.000Z</time>
      </trkpt>
      <trkpt lat="43.22841" lon="0.20905">
        <ele>323.20001220703</ele>
        <time>2023-04-13T15:48:14.000Z</time>
      </trkpt>
      <trkpt lat="43.22839" lon="0.20904">
        <ele>323</ele>
        <time>2023-04-13T15:48:15.000Z</time>
      </trkpt>
      <trkpt lat="43.22825" lon="0.20907">
        <ele>322.20001220703</ele>
        <time>2023-04-13T15:48:19.000Z</time>
      </trkpt>
      <trkpt lat="43.22821" lon="0.20909">
        <ele>322</ele>
        <time>2023-04-13T15:48:20.000Z</time>
      </trkpt>
      <trkpt lat="43.22811" lon="0.20917">
        <ele>321.60000610352</ele>
        <time>2023-04-13T15:48:25.000Z</time>
      </trkpt>
      <trkpt lat="43.22804" lon="0.20927">
        <ele>322.60000610352</ele>
        <time>2023-04-13T15:48:30.000Z</time>
      </trkpt>
      <trkpt lat="43.22802" lon="0.20928">
        <ele>322.60000610352</ele>
        <time>2023-04-13T15:48:31.000Z</time>
      </trkpt>
      <trkpt lat="43.22786" lon="0.20937">
        <ele>322</ele>
        <time>2023-04-13T15:48:37.000Z</time>
      </trkpt>
      <trkpt lat="43.22784" lon="0.20941">
        <ele>321.79998779297</ele>
        <time>2023-04-13T15:48:38.000Z</time>
      </trkpt>
      <trkpt lat="43.22784" lon="0.20951">
        <ele>321.79998779297</ele>
        <time>2023-04-13T15:48:42.000Z</time>
      </trkpt>
      <trkpt lat="43.22785" lon="0.20959">
        <ele>322.39999389648</ele>
        <time>2023-04-13T15:48:45.000Z</time>
      </trkpt>
      <trkpt lat="43.22785" lon="0.20973">
        <ele>323</ele>
        <time>2023-04-13T15:48:49.000Z</time>
      </trkpt>
      <trkpt lat="43.22783" lon="0.20987">
        <ele>323</ele>
        <time>2023-04-13T15:48:52.000Z</time>
      </trkpt>
      <trkpt lat="43.2278" lon="0.21014">
        <ele>322.20001220703</ele>
        <time>2023-04-13T15:48:58.000Z</time>
      </trkpt>
      <trkpt lat="43.22779" lon="0.21022">
        <ele>321.79998779297</ele>
        <time>2023-04-13T15:49:00.000Z</time>
      </trkpt>
      <trkpt lat="43.2278" lon="0.21052">
        <ele>320.79998779297</ele>
        <time>2023-04-13T15:49:07.000Z</time>
      </trkpt>
      <trkpt lat="43.22779" lon="0.21056">
        <ele>320.60000610352</ele>
        <time>2023-04-13T15:49:08.000Z</time>
      </trkpt>
      <trkpt lat="43.22777" lon="0.2107">
        <ele>319.20001220703</ele>
        <time>2023-04-13T15:49:11.000Z</time>
      </trkpt>
      <trkpt lat="43.22773" lon="0.21087">
        <ele>317.79998779297</ele>
        <time>2023-04-13T15:49:14.000Z</time>
      </trkpt>
      <trkpt lat="43.22771" lon="0.21096">
        <ele>317.20001220703</ele>
        <time>2023-04-13T15:49:16.000Z</time>
      </trkpt>
      <trkpt lat="43.22771" lon="0.211">
        <ele>316.79998779297</ele>
        <time>2023-04-13T15:49:17.000Z</time>
      </trkpt>
      <trkpt lat="43.22769" lon="0.21122">
        <ele>315.79998779297</ele>
        <time>2023-04-13T15:49:21.000Z</time>
      </trkpt>
      <trkpt lat="43.22769" lon="0.21127">
        <ele>315.60000610352</ele>
        <time>2023-04-13T15:49:22.000Z</time>
      </trkpt>
      <trkpt lat="43.22768" lon="0.21154">
        <ele>314.79998779297</ele>
        <time>2023-04-13T15:49:28.000Z</time>
      </trkpt>
      <trkpt lat="43.22766" lon="0.21159">
        <ele>314.60000610352</ele>
        <time>2023-04-13T15:49:29.000Z</time>
      </trkpt>
      <trkpt lat="43.22758" lon="0.21182">
        <ele>313.60000610352</ele>
        <time>2023-04-13T15:49:34.000Z</time>
      </trkpt>
      <trkpt lat="43.22751" lon="0.21198">
        <ele>313.39999389648</ele>
        <time>2023-04-13T15:49:38.000Z</time>
      </trkpt>
      <trkpt lat="43.22741" lon="0.21217">
        <ele>310.79998779297</ele>
        <time>2023-04-13T15:49:42.000Z</time>
      </trkpt>
      <trkpt lat="43.2274" lon="0.2122">
        <ele>309.20001220703</ele>
        <time>2023-04-13T15:49:43.000Z</time>
      </trkpt>
      <trkpt lat="43.22737" lon="0.21229">
        <ele>308</ele>
        <time>2023-04-13T15:49:45.000Z</time>
      </trkpt>
      <trkpt lat="43.22735" lon="0.21246">
        <ele>307</ele>
        <time>2023-04-13T15:49:49.000Z</time>
      </trkpt>
      <trkpt lat="43.22732" lon="0.21253">
        <ele>306.60000610352</ele>
        <time>2023-04-13T15:49:51.000Z</time>
      </trkpt>
      <trkpt lat="43.22726" lon="0.21267">
        <ele>305.79998779297</ele>
        <time>2023-04-13T15:49:54.000Z</time>
      </trkpt>
      <trkpt lat="43.22724" lon="0.21276">
        <ele>304.60000610352</ele>
        <time>2023-04-13T15:49:56.000Z</time>
      </trkpt>
      <trkpt lat="43.2272" lon="0.21295">
        <ele>303.60000610352</ele>
        <time>2023-04-13T15:50:00.000Z</time>
      </trkpt>
      <trkpt lat="43.22719" lon="0.21298">
        <ele>303.39999389648</ele>
        <time>2023-04-13T15:50:01.000Z</time>
      </trkpt>
      <trkpt lat="43.22712" lon="0.21322">
        <ele>302.39999389648</ele>
        <time>2023-04-13T15:50:06.000Z</time>
      </trkpt>
      <trkpt lat="43.22709" lon="0.21326">
        <ele>302.20001220703</ele>
        <time>2023-04-13T15:50:07.000Z</time>
      </trkpt>
      <trkpt lat="43.227" lon="0.21342">
        <ele>301.20001220703</ele>
        <time>2023-04-13T15:50:11.000Z</time>
      </trkpt>
      <trkpt lat="43.22701" lon="0.21347">
        <ele>300.79998779297</ele>
        <time>2023-04-13T15:50:12.000Z</time>
      </trkpt>
      <trkpt lat="43.22703" lon="0.21364">
        <ele>299.79998779297</ele>
        <time>2023-04-13T15:50:15.000Z</time>
      </trkpt>
      <trkpt lat="43.22704" lon="0.21378">
        <ele>299</ele>
        <time>2023-04-13T15:50:18.000Z</time>
      </trkpt>
      <trkpt lat="43.22704" lon="0.21383">
        <ele>298.60000610352</ele>
        <time>2023-04-13T15:50:19.000Z</time>
      </trkpt>
      <trkpt lat="43.22707" lon="0.2141">
        <ele>297.39999389648</ele>
        <time>2023-04-13T15:50:25.000Z</time>
      </trkpt>
      <trkpt lat="43.22707" lon="0.21419">
        <ele>297</ele>
        <time>2023-04-13T15:50:27.000Z</time>
      </trkpt>
      <trkpt lat="43.22706" lon="0.21434">
        <ele>296</ele>
        <time>2023-04-13T15:50:30.000Z</time>
      </trkpt>
      <trkpt lat="43.22707" lon="0.21453">
        <ele>294.79998779297</ele>
        <time>2023-04-13T15:50:34.000Z</time>
      </trkpt>
      <trkpt lat="43.22707" lon="0.21458">
        <ele>294.60000610352</ele>
        <time>2023-04-13T15:50:35.000Z</time>
      </trkpt>
      <trkpt lat="43.22707" lon="0.21474">
        <ele>293.39999389648</ele>
        <time>2023-04-13T15:50:38.000Z</time>
      </trkpt>
      <trkpt lat="43.22707" lon="0.21479">
        <ele>293</ele>
        <time>2023-04-13T15:50:39.000Z</time>
      </trkpt>
      <trkpt lat="43.22706" lon="0.21489">
        <ele>291.79998779297</ele>
        <time>2023-04-13T15:50:41.000Z</time>
      </trkpt>
      <trkpt lat="43.22706" lon="0.21504">
        <ele>290.20001220703</ele>
        <time>2023-04-13T15:50:44.000Z</time>
      </trkpt>
      <trkpt lat="43.22706" lon="0.21515">
        <ele>289</ele>
        <time>2023-04-13T15:50:46.000Z</time>
      </trkpt>
      <trkpt lat="43.22705" lon="0.21529">
        <ele>287.79998779297</ele>
        <time>2023-04-13T15:50:49.000Z</time>
      </trkpt>
      <trkpt lat="43.22706" lon="0.21546">
        <ele>286.60000610352</ele>
        <time>2023-04-13T15:50:52.000Z</time>
      </trkpt>
      <trkpt lat="43.22706" lon="0.2155">
        <ele>286.20001220703</ele>
        <time>2023-04-13T15:50:53.000Z</time>
      </trkpt>
      <trkpt lat="43.22707" lon="0.21562">
        <ele>285.60000610352</ele>
        <time>2023-04-13T15:50:55.000Z</time>
      </trkpt>
      <trkpt lat="43.22708" lon="0.21585">
        <ele>284.20001220703</ele>
        <time>2023-04-13T15:51:00.000Z</time>
      </trkpt>
      <trkpt lat="43.2271" lon="0.21606">
        <ele>283.20001220703</ele>
        <time>2023-04-13T15:51:04.000Z</time>
      </trkpt>
      <trkpt lat="43.22709" lon="0.21626">
        <ele>282</ele>
        <time>2023-04-13T15:51:08.000Z</time>
      </trkpt>
      <trkpt lat="43.22709" lon="0.21637">
        <ele>281.39999389648</ele>
        <time>2023-04-13T15:51:10.000Z</time>
      </trkpt>
      <trkpt lat="43.22709" lon="0.21657">
        <ele>280.60000610352</ele>
        <time>2023-04-13T15:51:14.000Z</time>
      </trkpt>
      <trkpt lat="43.22708" lon="0.21671">
        <ele>279.39999389648</ele>
        <time>2023-04-13T15:51:17.000Z</time>
      </trkpt>
      <trkpt lat="43.22707" lon="0.21682">
        <ele>278.60000610352</ele>
        <time>2023-04-13T15:51:19.000Z</time>
      </trkpt>
      <trkpt lat="43.22707" lon="0.21687">
        <ele>278.20001220703</ele>
        <time>2023-04-13T15:51:20.000Z</time>
      </trkpt>
      <trkpt lat="43.22706" lon="0.21702">
        <ele>276.79998779297</ele>
        <time>2023-04-13T15:51:23.000Z</time>
      </trkpt>
      <trkpt lat="43.22706" lon="0.21717">
        <ele>275.60000610352</ele>
        <time>2023-04-13T15:51:26.000Z</time>
      </trkpt>
      <trkpt lat="43.22705" lon="0.21734">
        <ele>274.79998779297</ele>
        <time>2023-04-13T15:51:29.000Z</time>
      </trkpt>
      <trkpt lat="43.22704" lon="0.21738">
        <ele>274.60000610352</ele>
        <time>2023-04-13T15:51:30.000Z</time>
      </trkpt>
      <trkpt lat="43.22704" lon="0.21758">
        <ele>273.20001220703</ele>
        <time>2023-04-13T15:51:34.000Z</time>
      </trkpt>
      <trkpt lat="43.22706" lon="0.21779">
        <ele>272.39999389648</ele>
        <time>2023-04-13T15:51:38.000Z</time>
      </trkpt>
      <trkpt lat="43.22706" lon="0.21788">
        <ele>272</ele>
        <time>2023-04-13T15:51:40.000Z</time>
      </trkpt>
      <trkpt lat="43.22707" lon="0.21804">
        <ele>271.39999389648</ele>
        <time>2023-04-13T15:51:43.000Z</time>
      </trkpt>
      <trkpt lat="43.22707" lon="0.21809">
        <ele>271</ele>
        <time>2023-04-13T15:51:44.000Z</time>
      </trkpt>
      <trkpt lat="43.22707" lon="0.21813">
        <ele>270.60000610352</ele>
        <time>2023-04-13T15:51:45.000Z</time>
      </trkpt>
      <trkpt lat="43.22708" lon="0.21827">
        <ele>269.79998779297</ele>
        <time>2023-04-13T15:51:48.000Z</time>
      </trkpt>
      <trkpt lat="43.22709" lon="0.21842">
        <ele>268.20001220703</ele>
        <time>2023-04-13T15:51:51.000Z</time>
      </trkpt>
      <trkpt lat="43.22711" lon="0.21851">
        <ele>267</ele>
        <time>2023-04-13T15:51:53.000Z</time>
      </trkpt>
      <trkpt lat="43.22713" lon="0.2186">
        <ele>266</ele>
        <time>2023-04-13T15:51:55.000Z</time>
      </trkpt>
      <trkpt lat="43.22716" lon="0.21872">
        <ele>264.60000610352</ele>
        <time>2023-04-13T15:51:58.000Z</time>
      </trkpt>
      <trkpt lat="43.22722" lon="0.21884">
        <ele>263</ele>
        <time>2023-04-13T15:52:01.000Z</time>
      </trkpt>
      <trkpt lat="43.22727" lon="0.21891">
        <ele>262</ele>
        <time>2023-04-13T15:52:03.000Z</time>
      </trkpt>
      <trkpt lat="43.2273" lon="0.21898">
        <ele>260.79998779297</ele>
        <time>2023-04-13T15:52:05.000Z</time>
      </trkpt>
      <trkpt lat="43.22732" lon="0.21907">
        <ele>259.79998779297</ele>
        <time>2023-04-13T15:52:07.000Z</time>
      </trkpt>
      <trkpt lat="43.22732" lon="0.21912">
        <ele>259</ele>
        <time>2023-04-13T15:52:08.000Z</time>
      </trkpt>
      <trkpt lat="43.22732" lon="0.21918">
        <ele>258.39999389648</ele>
        <time>2023-04-13T15:52:09.000Z</time>
      </trkpt>
      <trkpt lat="43.22729" lon="0.21929">
        <ele>257.39999389648</ele>
        <time>2023-04-13T15:52:12.000Z</time>
      </trkpt>
      <trkpt lat="43.22727" lon="0.21932">
        <ele>256.79998779297</ele>
        <time>2023-04-13T15:52:13.000Z</time>
      </trkpt>
      <trkpt lat="43.22723" lon="0.21935">
        <ele>256.39999389648</ele>
        <time>2023-04-13T15:52:14.000Z</time>
      </trkpt>
      <trkpt lat="43.2272" lon="0.21937">
        <ele>256.20001220703</ele>
        <time>2023-04-13T15:52:15.000Z</time>
      </trkpt>
      <trkpt lat="43.22704" lon="0.21943">
        <ele>256.39999389648</ele>
        <time>2023-04-13T15:52:20.000Z</time>
      </trkpt>
      <trkpt lat="43.22687" lon="0.21943">
        <ele>257.39999389648</ele>
        <time>2023-04-13T15:52:25.000Z</time>
      </trkpt>
      <trkpt lat="43.2268" lon="0.21941">
        <ele>257.79998779297</ele>
        <time>2023-04-13T15:52:27.000Z</time>
      </trkpt>
      <trkpt lat="43.22666" lon="0.21936">
        <ele>258.20001220703</ele>
        <time>2023-04-13T15:52:31.000Z</time>
      </trkpt>
      <trkpt lat="43.22658" lon="0.21938">
        <ele>258.39999389648</ele>
        <time>2023-04-13T15:52:33.000Z</time>
      </trkpt>
      <trkpt lat="43.22641" lon="0.21951">
        <ele>258.20001220703</ele>
        <time>2023-04-13T15:52:38.000Z</time>
      </trkpt>
      <trkpt lat="43.22635" lon="0.21955">
        <ele>258</ele>
        <time>2023-04-13T15:52:40.000Z</time>
      </trkpt>
      <trkpt lat="43.22618" lon="0.21964">
        <ele>257.20001220703</ele>
        <time>2023-04-13T15:52:45.000Z</time>
      </trkpt>
      <trkpt lat="43.22605" lon="0.2197">
        <ele>256.79998779297</ele>
        <time>2023-04-13T15:52:49.000Z</time>
      </trkpt>
      <trkpt lat="43.22587" lon="0.21977">
        <ele>256.60000610352</ele>
        <time>2023-04-13T15:52:54.000Z</time>
      </trkpt>
      <trkpt lat="43.22568" lon="0.21984">
        <ele>257.20001220703</ele>
        <time>2023-04-13T15:53:00.000Z</time>
      </trkpt>
      <trkpt lat="43.22564" lon="0.21985">
        <ele>257.20001220703</ele>
        <time>2023-04-13T15:53:01.000Z</time>
      </trkpt>
      <trkpt lat="43.22543" lon="0.2199">
        <ele>257</ele>
        <time>2023-04-13T15:53:07.000Z</time>
      </trkpt>
      <trkpt lat="43.2253" lon="0.21994">
        <ele>257.39999389648</ele>
        <time>2023-04-13T15:53:11.000Z</time>
      </trkpt>
      <trkpt lat="43.2252" lon="0.21996">
        <ele>258.20001220703</ele>
        <time>2023-04-13T15:53:14.000Z</time>
      </trkpt>
      <trkpt lat="43.22512" lon="0.21997">
        <ele>258.39999389648</ele>
        <time>2023-04-13T15:53:16.000Z</time>
      </trkpt>
      <trkpt lat="43.22492" lon="0.21999">
        <ele>259</ele>
        <time>2023-04-13T15:53:22.000Z</time>
      </trkpt>
      <trkpt lat="43.22481" lon="0.22">
        <ele>259.60000610352</ele>
        <time>2023-04-13T15:53:26.000Z</time>
      </trkpt>
      <trkpt lat="43.22467" lon="0.21999">
        <ele>259.79998779297</ele>
        <time>2023-04-13T15:53:30.000Z</time>
      </trkpt>
      <trkpt lat="43.22447" lon="0.21999">
        <ele>260.60000610352</ele>
        <time>2023-04-13T15:53:37.000Z</time>
      </trkpt>
      <trkpt lat="43.22444" lon="0.21999">
        <ele>260.79998779297</ele>
        <time>2023-04-13T15:53:38.000Z</time>
      </trkpt>
      <trkpt lat="43.22435" lon="0.22">
        <ele>261.20001220703</ele>
        <time>2023-04-13T15:53:41.000Z</time>
      </trkpt>
      <trkpt lat="43.22421" lon="0.21999">
        <ele>262</ele>
        <time>2023-04-13T15:53:46.000Z</time>
      </trkpt>
      <trkpt lat="43.22401" lon="0.21999">
        <ele>262.79998779297</ele>
        <time>2023-04-13T15:53:53.000Z</time>
      </trkpt>
      <trkpt lat="43.22397" lon="0.21999">
        <ele>262.79998779297</ele>
        <time>2023-04-13T15:53:54.000Z</time>
      </trkpt>
      <trkpt lat="43.22391" lon="0.21999">
        <ele>263.20001220703</ele>
        <time>2023-04-13T15:53:56.000Z</time>
      </trkpt>
      <trkpt lat="43.22375" lon="0.21998">
        <ele>264.20001220703</ele>
        <time>2023-04-13T15:54:01.000Z</time>
      </trkpt>
      <trkpt lat="43.22369" lon="0.21998">
        <ele>264.79998779297</ele>
        <time>2023-04-13T15:54:03.000Z</time>
      </trkpt>
      <trkpt lat="43.22356" lon="0.21996">
        <ele>265</ele>
        <time>2023-04-13T15:54:07.000Z</time>
      </trkpt>
      <trkpt lat="43.22346" lon="0.21995">
        <ele>265.20001220703</ele>
        <time>2023-04-13T15:54:10.000Z</time>
      </trkpt>
      <trkpt lat="43.22341" lon="0.21993">
        <ele>265.39999389648</ele>
        <time>2023-04-13T15:54:12.000Z</time>
      </trkpt>
      <trkpt lat="43.22327" lon="0.21989">
        <ele>266.39999389648</ele>
        <time>2023-04-13T15:54:17.000Z</time>
      </trkpt>
      <trkpt lat="43.22323" lon="0.21988">
        <ele>266.39999389648</ele>
        <time>2023-04-13T15:54:18.000Z</time>
      </trkpt>
      <trkpt lat="43.2232" lon="0.21987">
        <ele>266.39999389648</ele>
        <time>2023-04-13T15:54:19.000Z</time>
      </trkpt>
      <trkpt lat="43.22302" lon="0.21977">
        <ele>265.79998779297</ele>
        <time>2023-04-13T15:54:25.000Z</time>
      </trkpt>
      <trkpt lat="43.223" lon="0.21975">
        <ele>265.79998779297</ele>
        <time>2023-04-13T15:54:26.000Z</time>
      </trkpt>
      <trkpt lat="43.22297" lon="0.21973">
        <ele>265.79998779297</ele>
        <time>2023-04-13T15:54:27.000Z</time>
      </trkpt>
      <trkpt lat="43.22295" lon="0.21971">
        <ele>265.60000610352</ele>
        <time>2023-04-13T15:54:28.000Z</time>
      </trkpt>
      <trkpt lat="43.22287" lon="0.21964">
        <ele>265.39999389648</ele>
        <time>2023-04-13T15:54:31.000Z</time>
      </trkpt>
      <trkpt lat="43.22281" lon="0.21956">
        <ele>265</ele>
        <time>2023-04-13T15:54:34.000Z</time>
      </trkpt>
      <trkpt lat="43.22269" lon="0.21945">
        <ele>265.20001220703</ele>
        <time>2023-04-13T15:54:39.000Z</time>
      </trkpt>
      <trkpt lat="43.22259" lon="0.21938">
        <ele>265.20001220703</ele>
        <time>2023-04-13T15:54:43.000Z</time>
      </trkpt>
      <trkpt lat="43.22257" lon="0.21936">
        <ele>265</ele>
        <time>2023-04-13T15:54:44.000Z</time>
      </trkpt>
      <trkpt lat="43.2224" lon="0.21933">
        <ele>265</ele>
        <time>2023-04-13T15:54:50.000Z</time>
      </trkpt>
      <trkpt lat="43.22221" lon="0.21935">
        <ele>265.60000610352</ele>
        <time>2023-04-13T15:54:57.000Z</time>
      </trkpt>
      <trkpt lat="43.22207" lon="0.21932">
        <ele>265.79998779297</ele>
        <time>2023-04-13T15:55:03.000Z</time>
      </trkpt>
      <trkpt lat="43.22198" lon="0.21933">
        <ele>266.60000610352</ele>
        <time>2023-04-13T15:55:07.000Z</time>
      </trkpt>
      <trkpt lat="43.22194" lon="0.21933">
        <ele>267.20001220703</ele>
        <time>2023-04-13T15:55:09.000Z</time>
      </trkpt>
      <trkpt lat="43.22187" lon="0.21933">
        <ele>267.79998779297</ele>
        <time>2023-04-13T15:55:11.000Z</time>
      </trkpt>
      <trkpt lat="43.22178" lon="0.21932">
        <ele>268.79998779297</ele>
        <time>2023-04-13T15:55:15.000Z</time>
      </trkpt>
      <trkpt lat="43.22172" lon="0.21931">
        <ele>270</ele>
        <time>2023-04-13T15:55:18.000Z</time>
      </trkpt>
      <trkpt lat="43.22168" lon="0.2193">
        <ele>270.60000610352</ele>
        <time>2023-04-13T15:55:20.000Z</time>
      </trkpt>
      <trkpt lat="43.22162" lon="0.21928">
        <ele>270.79998779297</ele>
        <time>2023-04-13T15:55:23.000Z</time>
      </trkpt>
      <trkpt lat="43.22158" lon="0.21927">
        <ele>271.39999389648</ele>
        <time>2023-04-13T15:55:25.000Z</time>
      </trkpt>
      <trkpt lat="43.22148" lon="0.21927">
        <ele>272.39999389648</ele>
        <time>2023-04-13T15:55:29.000Z</time>
      </trkpt>
      <trkpt lat="43.22142" lon="0.21927">
        <ele>273</ele>
        <time>2023-04-13T15:55:31.000Z</time>
      </trkpt>
      <trkpt lat="43.22131" lon="0.21928">
        <ele>273.60000610352</ele>
        <time>2023-04-13T15:55:35.000Z</time>
      </trkpt>
      <trkpt lat="43.22113" lon="0.21929">
        <ele>274.20001220703</ele>
        <time>2023-04-13T15:55:41.000Z</time>
      </trkpt>
      <trkpt lat="43.221" lon="0.21929">
        <ele>274.79998779297</ele>
        <time>2023-04-13T15:55:46.000Z</time>
      </trkpt>
      <trkpt lat="43.22081" lon="0.21929">
        <ele>275.39999389648</ele>
        <time>2023-04-13T15:55:53.000Z</time>
      </trkpt>
      <trkpt lat="43.22062" lon="0.21934">
        <ele>275.60000610352</ele>
        <time>2023-04-13T15:55:59.000Z</time>
      </trkpt>
      <trkpt lat="43.22058" lon="0.21938">
        <ele>275.79998779297</ele>
        <time>2023-04-13T15:56:01.000Z</time>
      </trkpt>
      <trkpt lat="43.22043" lon="0.21946">
        <ele>276</ele>
        <time>2023-04-13T15:56:07.000Z</time>
      </trkpt>
      <trkpt lat="43.22026" lon="0.21938">
        <ele>275.79998779297</ele>
        <time>2023-04-13T15:56:13.000Z</time>
      </trkpt>
      <trkpt lat="43.22014" lon="0.21926">
        <ele>276.39999389648</ele>
        <time>2023-04-13T15:56:18.000Z</time>
      </trkpt>
      <trkpt lat="43.2201" lon="0.21921">
        <ele>276.39999389648</ele>
        <time>2023-04-13T15:56:20.000Z</time>
      </trkpt>
      <trkpt lat="43.21996" lon="0.21902">
        <ele>276.60000610352</ele>
        <time>2023-04-13T15:56:27.000Z</time>
      </trkpt>
      <trkpt lat="43.21994" lon="0.21899">
        <ele>276.60000610352</ele>
        <time>2023-04-13T15:56:28.000Z</time>
      </trkpt>
      <trkpt lat="43.21982" lon="0.21879">
        <ele>277</ele>
        <time>2023-04-13T15:56:35.000Z</time>
      </trkpt>
      <trkpt lat="43.21977" lon="0.2187">
        <ele>277.79998779297</ele>
        <time>2023-04-13T15:56:38.000Z</time>
      </trkpt>
      <trkpt lat="43.21976" lon="0.21867">
        <ele>278</ele>
        <time>2023-04-13T15:56:39.000Z</time>
      </trkpt>
      <trkpt lat="43.21973" lon="0.21861">
        <ele>278.20001220703</ele>
        <time>2023-04-13T15:56:41.000Z</time>
      </trkpt>
      <trkpt lat="43.21803" lon="0.21718">
        <ele>282.20001220703</ele>
        <time>2023-04-13T15:57:57.000Z</time>
      </trkpt>
      <trkpt lat="43.21797" lon="0.21713">
        <ele>282.20001220703</ele>
        <time>2023-04-13T15:57:59.000Z</time>
      </trkpt>
      <trkpt lat="43.21778" lon="0.21701">
        <ele>283.20001220703</ele>
        <time>2023-04-13T15:58:06.000Z</time>
      </trkpt>
      <trkpt lat="43.21777" lon="0.21697">
        <ele>283.39999389648</ele>
        <time>2023-04-13T15:58:07.000Z</time>
      </trkpt>
      <trkpt lat="43.21767" lon="0.21677">
        <ele>284.60000610352</ele>
        <time>2023-04-13T15:58:13.000Z</time>
      </trkpt>
      <trkpt lat="43.21766" lon="0.21674">
        <ele>285</ele>
        <time>2023-04-13T15:58:14.000Z</time>
      </trkpt>
      <trkpt lat="43.21763" lon="0.21664">
        <ele>286</ele>
        <time>2023-04-13T15:58:17.000Z</time>
      </trkpt>
      <trkpt lat="43.21761" lon="0.21659">
        <ele>287</ele>
        <time>2023-04-13T15:58:19.000Z</time>
      </trkpt>
      <trkpt lat="43.2176" lon="0.21659">
        <ele>287.39999389648</ele>
        <time>2023-04-13T15:58:20.000Z</time>
      </trkpt>
      <trkpt lat="43.21759" lon="0.21659">
        <ele>288.20001220703</ele>
        <time>2023-04-13T15:58:21.000Z</time>
      </trkpt>
      <trkpt lat="43.21751" lon="0.21667">
        <ele>289</ele>
        <time>2023-04-13T15:58:24.000Z</time>
      </trkpt>
      <trkpt lat="43.21731" lon="0.21674">
        <ele>287.79998779297</ele>
        <time>2023-04-13T15:58:29.000Z</time>
      </trkpt>
      <trkpt lat="43.2172" lon="0.21675">
        <ele>287.20001220703</ele>
        <time>2023-04-13T15:58:32.000Z</time>
      </trkpt>
      <trkpt lat="43.21707" lon="0.21682">
        <ele>286.39999389648</ele>
        <time>2023-04-13T15:58:36.000Z</time>
      </trkpt>
      <trkpt lat="43.21704" lon="0.21685">
        <ele>286</ele>
        <time>2023-04-13T15:58:37.000Z</time>
      </trkpt>
      <trkpt lat="43.21702" lon="0.21695">
        <ele>285</ele>
        <time>2023-04-13T15:58:39.000Z</time>
      </trkpt>
      <trkpt lat="43.21701" lon="0.21705">
        <ele>284.20001220703</ele>
        <time>2023-04-13T15:58:41.000Z</time>
      </trkpt>
      <trkpt lat="43.217" lon="0.2171">
        <ele>283.60000610352</ele>
        <time>2023-04-13T15:58:42.000Z</time>
      </trkpt>
      <trkpt lat="43.21696" lon="0.2173">
        <ele>282.39999389648</ele>
        <time>2023-04-13T15:58:46.000Z</time>
      </trkpt>
      <trkpt lat="43.2169" lon="0.21747">
        <ele>281.60000610352</ele>
        <time>2023-04-13T15:58:50.000Z</time>
      </trkpt>
      <trkpt lat="43.21689" lon="0.21751">
        <ele>281.39999389648</ele>
        <time>2023-04-13T15:58:51.000Z</time>
      </trkpt>
      <trkpt lat="43.21687" lon="0.21764">
        <ele>281</ele>
        <time>2023-04-13T15:58:54.000Z</time>
      </trkpt>
      <trkpt lat="43.21682" lon="0.21774">
        <ele>280.79998779297</ele>
        <time>2023-04-13T15:58:57.000Z</time>
      </trkpt>
    </trkseg>
  </trk>
</gpx>